<?xml version="1.0" encoding="UTF-8"?>
<gpx xmlns="http://www.topografix.com/GPX/1/1" xmlns:gpsies="http://www.gpsies.com/GPX/1/0" creator="GPSies http://www.gpsies.com - &amp;#1495;&amp;#1512;&amp;#1493;&amp;#1489;&amp;#1497;&amp;#1514; &amp;#1493;&amp;#1514;&amp;#1500; &amp;#1510;&amp;#1508;&amp;#1497;&amp;#1514;" version="1.1" xmlns:xsi="http://www.w3.org/2001/XMLSchema-instance" xsi:schemaLocation="http://www.topografix.com/GPX/1/1 http://www.topografix.com/GPX/1/1/gpx.xsd http://www.gpsies.com/GPX/1/0 http://www.gpsies.com/gpsies.xsd">
  <metadata>
    <name>חרובית ותל צפית</name>
    <author>
      <name>lior_kaykov</name>
      <link href="http://www.gpsies.com/mapUser.do?username=lior_kaykov">
        <text>lior_kaykov on GPSies.com</text>
        <type>GPSiesUserOnWeb</type>
      </link>
    </author>
    <link href="http://www.gpsies.com/map.do?fileId=iohfycsiobidfmzh">
      <text>חרובית ותל צפית on GPSies.com</text>
      <type>trackOnWeb</type>
    </link>
    <time>2014-05-04T15:35:15Z</time>
    <extensions>
      <gpsies:property>round trip</gpsies:property>
      <gpsies:trackLengthMeter>15830.674175094997</gpsies:trackLengthMeter>
      <gpsies:totalAscentMeter>460.31999999999994</gpsies:totalAscentMeter>
      <gpsies:totalDescentMeter>451.0200000000001</gpsies:totalDescentMeter>
      <gpsies:minHeightMeter>124.35</gpsies:minHeightMeter>
      <gpsies:maxHeightMeter>216.05</gpsies:maxHeightMeter>
    </extensions>
  </metadata>
  <trk>
    <name>חרובית ותל צפית on GPSies.com</name>
    <link href="http://www.gpsies.com/map.do?fileId=iohfycsiobidfmzh">
      <type>trackOnWeb</type>
    </link>
    <link href="http://www.gpsies.com/charts/io/map/iohfycsiobidfmzh_map.png">
      <type>elevationChartUrlMap</type>
    </link>
    <link href="http://www.gpsies.com/charts/io/mapThumb/iohfycsiobidfmzh_mapThumb.png">
      <type>elevationChartUrlMapThumb</type>
    </link>
    <link href="http://www.gpsies.com/charts/io/tab/iohfycsiobidfmzh_tab.png">
      <type>elevationChartUrlTab</type>
    </link>
    <trkseg>
      <trkpt lat="31.73762510" lon="34.85698410">
        <ele>149.87000</ele>
        <time>2010-01-01T00:00:00Z</time>
      </trkpt>
      <trkpt lat="31.73748560" lon="34.85712670">
        <ele>152.18000</ele>
        <time>2010-01-01T00:00:07Z</time>
      </trkpt>
      <trkpt lat="31.73729450" lon="34.85710140">
        <ele>155.37000</ele>
        <time>2010-01-01T00:00:15Z</time>
      </trkpt>
      <trkpt lat="31.73714950" lon="34.85696240">
        <ele>156.72000</ele>
        <time>2010-01-01T00:00:22Z</time>
      </trkpt>
      <trkpt lat="31.73695270" lon="34.85688100">
        <ele>153.11000</ele>
        <time>2010-01-01T00:00:30Z</time>
      </trkpt>
      <trkpt lat="31.73676350" lon="34.85699620">
        <ele>154.48000</ele>
        <time>2010-01-01T00:00:39Z</time>
      </trkpt>
      <trkpt lat="31.73667200" lon="34.85718460">
        <ele>156.12000</ele>
        <time>2010-01-01T00:00:46Z</time>
      </trkpt>
      <trkpt lat="31.73657430" lon="34.85737080">
        <ele>157.09000</ele>
        <time>2010-01-01T00:00:54Z</time>
      </trkpt>
      <trkpt lat="31.73649380" lon="34.85756810">
        <ele>158.20000</ele>
        <time>2010-01-01T00:01:01Z</time>
      </trkpt>
      <trkpt lat="31.73642420" lon="34.85778260">
        <ele>160.72000</ele>
        <time>2010-01-01T00:01:09Z</time>
      </trkpt>
      <trkpt lat="31.73632500" lon="34.85799050">
        <ele>160.84000</ele>
        <time>2010-01-01T00:01:17Z</time>
      </trkpt>
      <trkpt lat="31.73621040" lon="34.85815470">
        <ele>162.91000</ele>
        <time>2010-01-01T00:01:24Z</time>
      </trkpt>
      <trkpt lat="31.73604220" lon="34.85823840">
        <ele>162.89000</ele>
        <time>2010-01-01T00:01:32Z</time>
      </trkpt>
      <trkpt lat="31.73591780" lon="34.85839740">
        <ele>166.16000</ele>
        <time>2010-01-01T00:01:39Z</time>
      </trkpt>
      <trkpt lat="31.73575740" lon="34.85850830">
        <ele>164.20000</ele>
        <time>2010-01-01T00:01:47Z</time>
      </trkpt>
      <trkpt lat="31.73557620" lon="34.85856630">
        <ele>163.64000</ele>
        <time>2010-01-01T00:01:54Z</time>
      </trkpt>
      <trkpt lat="31.73542960" lon="34.85871290">
        <ele>166.01000</ele>
        <time>2010-01-01T00:02:02Z</time>
      </trkpt>
      <trkpt lat="31.73525890" lon="34.85878300">
        <ele>167.64000</ele>
        <time>2010-01-01T00:02:09Z</time>
      </trkpt>
      <trkpt lat="31.73511680" lon="34.85893440">
        <ele>170.66000</ele>
        <time>2010-01-01T00:02:17Z</time>
      </trkpt>
      <trkpt lat="31.73500030" lon="34.85911870">
        <ele>170.96000</ele>
        <time>2010-01-01T00:02:24Z</time>
      </trkpt>
      <trkpt lat="31.73493970" lon="34.85936510">
        <ele>169.18000</ele>
        <time>2010-01-01T00:02:33Z</time>
      </trkpt>
      <trkpt lat="31.73481970" lon="34.85958740">
        <ele>175.62000</ele>
        <time>2010-01-01T00:02:42Z</time>
      </trkpt>
      <trkpt lat="31.73471650" lon="34.85977760">
        <ele>173.57000</ele>
        <time>2010-01-01T00:02:50Z</time>
      </trkpt>
      <trkpt lat="31.73461680" lon="34.85995920">
        <ele>176.56000</ele>
        <time>2010-01-01T00:02:57Z</time>
      </trkpt>
      <trkpt lat="31.73446900" lon="34.86010070">
        <ele>181.70000</ele>
        <time>2010-01-01T00:03:05Z</time>
      </trkpt>
      <trkpt lat="31.73429640" lon="34.86020110">
        <ele>183.59000</ele>
        <time>2010-01-01T00:03:13Z</time>
      </trkpt>
      <trkpt lat="31.73415560" lon="34.86033690">
        <ele>185.18000</ele>
        <time>2010-01-01T00:03:20Z</time>
      </trkpt>
      <trkpt lat="31.73404040" lon="34.86050350">
        <ele>185.65000</ele>
        <time>2010-01-01T00:03:27Z</time>
      </trkpt>
      <trkpt lat="31.73394670" lon="34.86069580">
        <ele>189.19000</ele>
        <time>2010-01-01T00:03:35Z</time>
      </trkpt>
      <trkpt lat="31.73380470" lon="34.86083180">
        <ele>186.65000</ele>
        <time>2010-01-01T00:03:42Z</time>
      </trkpt>
      <trkpt lat="31.73362540" lon="34.86092250">
        <ele>186.07000</ele>
        <time>2010-01-01T00:03:50Z</time>
      </trkpt>
      <trkpt lat="31.73344970" lon="34.86098980">
        <ele>185.26000</ele>
        <time>2010-01-01T00:03:57Z</time>
      </trkpt>
      <trkpt lat="31.73334980" lon="34.86076330">
        <ele>186.07000</ele>
        <time>2010-01-01T00:04:06Z</time>
      </trkpt>
      <trkpt lat="31.73319410" lon="34.86064120">
        <ele>187.31000</ele>
        <time>2010-01-01T00:04:13Z</time>
      </trkpt>
      <trkpt lat="31.73310090" lon="34.86043450">
        <ele>187.05000</ele>
        <time>2010-01-01T00:04:21Z</time>
      </trkpt>
      <trkpt lat="31.73316490" lon="34.86022740">
        <ele>186.56000</ele>
        <time>2010-01-01T00:04:29Z</time>
      </trkpt>
      <trkpt lat="31.73329450" lon="34.86007850">
        <ele>189.60000</ele>
        <time>2010-01-01T00:04:36Z</time>
      </trkpt>
      <trkpt lat="31.73341520" lon="34.85990240">
        <ele>189.47000</ele>
        <time>2010-01-01T00:04:44Z</time>
      </trkpt>
      <trkpt lat="31.73350260" lon="34.85969890">
        <ele>190.35000</ele>
        <time>2010-01-01T00:04:52Z</time>
      </trkpt>
      <trkpt lat="31.73360030" lon="34.85950540">
        <ele>189.35000</ele>
        <time>2010-01-01T00:04:59Z</time>
      </trkpt>
      <trkpt lat="31.73373160" lon="34.85934990">
        <ele>190.79000</ele>
        <time>2010-01-01T00:05:07Z</time>
      </trkpt>
      <trkpt lat="31.73360100" lon="34.85915990">
        <ele>188.36000</ele>
        <time>2010-01-01T00:05:15Z</time>
      </trkpt>
      <trkpt lat="31.73350230" lon="34.85894140">
        <ele>187.94000</ele>
        <time>2010-01-01T00:05:23Z</time>
      </trkpt>
      <trkpt lat="31.73340940" lon="34.85871580">
        <ele>188.29000</ele>
        <time>2010-01-01T00:05:32Z</time>
      </trkpt>
      <trkpt lat="31.73329220" lon="34.85855410">
        <ele>189.22000</ele>
        <time>2010-01-01T00:05:39Z</time>
      </trkpt>
      <trkpt lat="31.73309020" lon="34.85843980">
        <ele>189.79000</ele>
        <time>2010-01-01T00:05:48Z</time>
      </trkpt>
      <trkpt lat="31.73292690" lon="34.85834100">
        <ele>186.91000</ele>
        <time>2010-01-01T00:05:56Z</time>
      </trkpt>
      <trkpt lat="31.73275000" lon="34.85827730">
        <ele>187.39000</ele>
        <time>2010-01-01T00:06:03Z</time>
      </trkpt>
      <trkpt lat="31.73255570" lon="34.85823930">
        <ele>188.06000</ele>
        <time>2010-01-01T00:06:11Z</time>
      </trkpt>
      <trkpt lat="31.73236370" lon="34.85819400">
        <ele>185.80000</ele>
        <time>2010-01-01T00:06:19Z</time>
      </trkpt>
      <trkpt lat="31.73216980" lon="34.85823020">
        <ele>185.15000</ele>
        <time>2010-01-01T00:06:27Z</time>
      </trkpt>
      <trkpt lat="31.73199290" lon="34.85834600">
        <ele>187.05000</ele>
        <time>2010-01-01T00:06:35Z</time>
      </trkpt>
      <trkpt lat="31.73188060" lon="34.85852050">
        <ele>187.44000</ele>
        <time>2010-01-01T00:06:42Z</time>
      </trkpt>
      <trkpt lat="31.73189130" lon="34.85876030">
        <ele>187.76000</ele>
        <time>2010-01-01T00:06:50Z</time>
      </trkpt>
      <trkpt lat="31.73184150" lon="34.85896950">
        <ele>189.06000</ele>
        <time>2010-01-01T00:06:58Z</time>
      </trkpt>
      <trkpt lat="31.73180060" lon="34.85919440">
        <ele>188.69000</ele>
        <time>2010-01-01T00:07:06Z</time>
      </trkpt>
      <trkpt lat="31.73169500" lon="34.85943420">
        <ele>188.00000</ele>
        <time>2010-01-01T00:07:15Z</time>
      </trkpt>
      <trkpt lat="31.73166630" lon="34.85965850">
        <ele>187.99000</ele>
        <time>2010-01-01T00:07:22Z</time>
      </trkpt>
      <trkpt lat="31.73165140" lon="34.85993130">
        <ele>188.25000</ele>
        <time>2010-01-01T00:07:32Z</time>
      </trkpt>
      <trkpt lat="31.73165640" lon="34.86016770">
        <ele>188.61000</ele>
        <time>2010-01-01T00:07:40Z</time>
      </trkpt>
      <trkpt lat="31.73164360" lon="34.86038970">
        <ele>188.62000</ele>
        <time>2010-01-01T00:07:47Z</time>
      </trkpt>
      <trkpt lat="31.73157560" lon="34.86065800">
        <ele>187.29000</ele>
        <time>2010-01-01T00:07:57Z</time>
      </trkpt>
      <trkpt lat="31.73151080" lon="34.86091430">
        <ele>185.41000</ele>
        <time>2010-01-01T00:08:06Z</time>
      </trkpt>
      <trkpt lat="31.73132640" lon="34.86109740">
        <ele>185.51000</ele>
        <time>2010-01-01T00:08:16Z</time>
      </trkpt>
      <trkpt lat="31.73125580" lon="34.86129450">
        <ele>185.36000</ele>
        <time>2010-01-01T00:08:23Z</time>
      </trkpt>
      <trkpt lat="31.73122250" lon="34.86150940">
        <ele>185.76000</ele>
        <time>2010-01-01T00:08:30Z</time>
      </trkpt>
      <trkpt lat="31.73121020" lon="34.86173990">
        <ele>185.70000</ele>
        <time>2010-01-01T00:08:38Z</time>
      </trkpt>
      <trkpt lat="31.73119160" lon="34.86198550">
        <ele>184.27000</ele>
        <time>2010-01-01T00:08:47Z</time>
      </trkpt>
      <trkpt lat="31.73108790" lon="34.86216820">
        <ele>183.65000</ele>
        <time>2010-01-01T00:08:54Z</time>
      </trkpt>
      <trkpt lat="31.73108410" lon="34.86238570">
        <ele>183.36000</ele>
        <time>2010-01-01T00:09:02Z</time>
      </trkpt>
      <trkpt lat="31.73115200" lon="34.86261820">
        <ele>185.51000</ele>
        <time>2010-01-01T00:09:10Z</time>
      </trkpt>
      <trkpt lat="31.73122380" lon="34.86282670">
        <ele>188.08000</ele>
        <time>2010-01-01T00:09:18Z</time>
      </trkpt>
      <trkpt lat="31.73124840" lon="34.86304410">
        <ele>188.32000</ele>
        <time>2010-01-01T00:09:25Z</time>
      </trkpt>
      <trkpt lat="31.73126360" lon="34.86328680">
        <ele>187.39000</ele>
        <time>2010-01-01T00:09:33Z</time>
      </trkpt>
      <trkpt lat="31.73118230" lon="34.86350430">
        <ele>188.76000</ele>
        <time>2010-01-01T00:09:41Z</time>
      </trkpt>
      <trkpt lat="31.73099200" lon="34.86360140">
        <ele>186.68000</ele>
        <time>2010-01-01T00:09:50Z</time>
      </trkpt>
      <trkpt lat="31.73085190" lon="34.86374110">
        <ele>186.20000</ele>
        <time>2010-01-01T00:09:57Z</time>
      </trkpt>
      <trkpt lat="31.73087340" lon="34.86397970">
        <ele>185.51000</ele>
        <time>2010-01-01T00:10:05Z</time>
      </trkpt>
      <trkpt lat="31.73075480" lon="34.86416900">
        <ele>183.53000</ele>
        <time>2010-01-01T00:10:13Z</time>
      </trkpt>
      <trkpt lat="31.73055200" lon="34.86424150">
        <ele>182.39000</ele>
        <time>2010-01-01T00:10:22Z</time>
      </trkpt>
      <trkpt lat="31.73034270" lon="34.86423950">
        <ele>181.96000</ele>
        <time>2010-01-01T00:10:30Z</time>
      </trkpt>
      <trkpt lat="31.73017700" lon="34.86412980">
        <ele>181.76000</ele>
        <time>2010-01-01T00:10:38Z</time>
      </trkpt>
      <trkpt lat="31.72996700" lon="34.86409990">
        <ele>181.19000</ele>
        <time>2010-01-01T00:10:46Z</time>
      </trkpt>
      <trkpt lat="31.72977120" lon="34.86414240">
        <ele>180.60000</ele>
        <time>2010-01-01T00:10:54Z</time>
      </trkpt>
      <trkpt lat="31.72959380" lon="34.86423450">
        <ele>179.97000</ele>
        <time>2010-01-01T00:11:02Z</time>
      </trkpt>
      <trkpt lat="31.72941840" lon="34.86440920">
        <ele>179.05000</ele>
        <time>2010-01-01T00:11:11Z</time>
      </trkpt>
      <trkpt lat="31.72925280" lon="34.86456480">
        <ele>178.77000</ele>
        <time>2010-01-01T00:11:20Z</time>
      </trkpt>
      <trkpt lat="31.72907010" lon="34.86462640">
        <ele>179.12000</ele>
        <time>2010-01-01T00:11:27Z</time>
      </trkpt>
      <trkpt lat="31.72889700" lon="34.86454320">
        <ele>178.39000</ele>
        <time>2010-01-01T00:11:35Z</time>
      </trkpt>
      <trkpt lat="31.72871620" lon="34.86448110">
        <ele>176.76000</ele>
        <time>2010-01-01T00:11:42Z</time>
      </trkpt>
      <trkpt lat="31.72859920" lon="34.86429730">
        <ele>175.04000</ele>
        <time>2010-01-01T00:11:50Z</time>
      </trkpt>
      <trkpt lat="31.72849060" lon="34.86412680">
        <ele>172.07000</ele>
        <time>2010-01-01T00:11:57Z</time>
      </trkpt>
      <trkpt lat="31.72826910" lon="34.86405840">
        <ele>171.24000</ele>
        <time>2010-01-01T00:12:06Z</time>
      </trkpt>
      <trkpt lat="31.72807580" lon="34.86396110">
        <ele>170.72000</ele>
        <time>2010-01-01T00:12:15Z</time>
      </trkpt>
      <trkpt lat="31.72791270" lon="34.86385880">
        <ele>169.78000</ele>
        <time>2010-01-01T00:12:22Z</time>
      </trkpt>
      <trkpt lat="31.72777950" lon="34.86370150">
        <ele>168.32000</ele>
        <time>2010-01-01T00:12:30Z</time>
      </trkpt>
      <trkpt lat="31.72767980" lon="34.86352440">
        <ele>167.65000</ele>
        <time>2010-01-01T00:12:37Z</time>
      </trkpt>
      <trkpt lat="31.72759720" lon="34.86330330">
        <ele>167.02000</ele>
        <time>2010-01-01T00:12:45Z</time>
      </trkpt>
      <trkpt lat="31.72741300" lon="34.86316550">
        <ele>166.43000</ele>
        <time>2010-01-01T00:12:54Z</time>
      </trkpt>
      <trkpt lat="31.72723250" lon="34.86320090">
        <ele>166.85000</ele>
        <time>2010-01-01T00:13:01Z</time>
      </trkpt>
      <trkpt lat="31.72704810" lon="34.86321870">
        <ele>167.44000</ele>
        <time>2010-01-01T00:13:09Z</time>
      </trkpt>
      <trkpt lat="31.72685170" lon="34.86320550">
        <ele>167.24000</ele>
        <time>2010-01-01T00:13:17Z</time>
      </trkpt>
      <trkpt lat="31.72667950" lon="34.86309580">
        <ele>169.04000</ele>
        <time>2010-01-01T00:13:24Z</time>
      </trkpt>
      <trkpt lat="31.72657490" lon="34.86288890">
        <ele>170.58000</ele>
        <time>2010-01-01T00:13:33Z</time>
      </trkpt>
      <trkpt lat="31.72659870" lon="34.86267250">
        <ele>174.80000</ele>
        <time>2010-01-01T00:13:40Z</time>
      </trkpt>
      <trkpt lat="31.72640360" lon="34.86268190">
        <ele>173.87000</ele>
        <time>2010-01-01T00:13:48Z</time>
      </trkpt>
      <trkpt lat="31.72620730" lon="34.86263970">
        <ele>174.64000</ele>
        <time>2010-01-01T00:13:56Z</time>
      </trkpt>
      <trkpt lat="31.72602360" lon="34.86269480">
        <ele>175.44000</ele>
        <time>2010-01-01T00:14:03Z</time>
      </trkpt>
      <trkpt lat="31.72589940" lon="34.86253030">
        <ele>173.53000</ele>
        <time>2010-01-01T00:14:11Z</time>
      </trkpt>
      <trkpt lat="31.72609300" lon="34.86246630">
        <ele>174.35000</ele>
        <time>2010-01-01T00:14:19Z</time>
      </trkpt>
      <trkpt lat="31.72624100" lon="34.86230290">
        <ele>175.94000</ele>
        <time>2010-01-01T00:14:27Z</time>
      </trkpt>
      <trkpt lat="31.72605430" lon="34.86227590">
        <ele>177.58000</ele>
        <time>2010-01-01T00:14:35Z</time>
      </trkpt>
      <trkpt lat="31.72590890" lon="34.86214650">
        <ele>176.09000</ele>
        <time>2010-01-01T00:14:42Z</time>
      </trkpt>
      <trkpt lat="31.72574650" lon="34.86204640">
        <ele>178.73000</ele>
        <time>2010-01-01T00:14:49Z</time>
      </trkpt>
      <trkpt lat="31.72564420" lon="34.86183640">
        <ele>181.46000</ele>
        <time>2010-01-01T00:14:58Z</time>
      </trkpt>
      <trkpt lat="31.72570590" lon="34.86162530">
        <ele>181.64000</ele>
        <time>2010-01-01T00:15:05Z</time>
      </trkpt>
      <trkpt lat="31.72558050" lon="34.86145180">
        <ele>181.54000</ele>
        <time>2010-01-01T00:15:13Z</time>
      </trkpt>
      <trkpt lat="31.72544190" lon="34.86131220">
        <ele>184.39000</ele>
        <time>2010-01-01T00:15:20Z</time>
      </trkpt>
      <trkpt lat="31.72551390" lon="34.86110130">
        <ele>183.58000</ele>
        <time>2010-01-01T00:15:28Z</time>
      </trkpt>
      <trkpt lat="31.72559260" lon="34.86090040">
        <ele>186.06000</ele>
        <time>2010-01-01T00:15:35Z</time>
      </trkpt>
      <trkpt lat="31.72557720" lon="34.86067560">
        <ele>187.36000</ele>
        <time>2010-01-01T00:15:43Z</time>
      </trkpt>
      <trkpt lat="31.72565780" lon="34.86047280">
        <ele>187.01000</ele>
        <time>2010-01-01T00:15:51Z</time>
      </trkpt>
      <trkpt lat="31.72573480" lon="34.86026760">
        <ele>187.44000</ele>
        <time>2010-01-01T00:15:58Z</time>
      </trkpt>
      <trkpt lat="31.72589250" lon="34.86014520">
        <ele>186.65000</ele>
        <time>2010-01-01T00:16:06Z</time>
      </trkpt>
      <trkpt lat="31.72590130" lon="34.85992080">
        <ele>187.19000</ele>
        <time>2010-01-01T00:16:14Z</time>
      </trkpt>
      <trkpt lat="31.72582490" lon="34.85970900">
        <ele>189.14000</ele>
        <time>2010-01-01T00:16:21Z</time>
      </trkpt>
      <trkpt lat="31.72583940" lon="34.85948240">
        <ele>189.54000</ele>
        <time>2010-01-01T00:16:29Z</time>
      </trkpt>
      <trkpt lat="31.72569730" lon="34.85933520">
        <ele>192.66000</ele>
        <time>2010-01-01T00:16:37Z</time>
      </trkpt>
      <trkpt lat="31.72550930" lon="34.85928420">
        <ele>192.36000</ele>
        <time>2010-01-01T00:16:45Z</time>
      </trkpt>
      <trkpt lat="31.72532830" lon="34.85924470">
        <ele>192.65000</ele>
        <time>2010-01-01T00:16:52Z</time>
      </trkpt>
      <trkpt lat="31.72513840" lon="34.85933950">
        <ele>191.49000</ele>
        <time>2010-01-01T00:17:00Z</time>
      </trkpt>
      <trkpt lat="31.72497960" lon="34.85947120">
        <ele>189.89000</ele>
        <time>2010-01-01T00:17:08Z</time>
      </trkpt>
      <trkpt lat="31.72478150" lon="34.85955640">
        <ele>187.56000</ele>
        <time>2010-01-01T00:17:16Z</time>
      </trkpt>
      <trkpt lat="31.72460590" lon="34.85963990">
        <ele>187.45000</ele>
        <time>2010-01-01T00:17:24Z</time>
      </trkpt>
      <trkpt lat="31.72441750" lon="34.85973490">
        <ele>186.55000</ele>
        <time>2010-01-01T00:17:32Z</time>
      </trkpt>
      <trkpt lat="31.72423490" lon="34.85984370">
        <ele>186.79000</ele>
        <time>2010-01-01T00:17:40Z</time>
      </trkpt>
      <trkpt lat="31.72403190" lon="34.85991160">
        <ele>186.67000</ele>
        <time>2010-01-01T00:17:49Z</time>
      </trkpt>
      <trkpt lat="31.72385660" lon="34.85997930">
        <ele>186.71000</ele>
        <time>2010-01-01T00:17:56Z</time>
      </trkpt>
      <trkpt lat="31.72369830" lon="34.86008530">
        <ele>185.35000</ele>
        <time>2010-01-01T00:18:03Z</time>
      </trkpt>
      <trkpt lat="31.72351310" lon="34.86003400">
        <ele>182.64000</ele>
        <time>2010-01-01T00:18:11Z</time>
      </trkpt>
      <trkpt lat="31.72333550" lon="34.86013490">
        <ele>182.50000</ele>
        <time>2010-01-01T00:18:19Z</time>
      </trkpt>
      <trkpt lat="31.72316390" lon="34.86022950">
        <ele>178.45000</ele>
        <time>2010-01-01T00:18:27Z</time>
      </trkpt>
      <trkpt lat="31.72301630" lon="34.86038440">
        <ele>177.31000</ele>
        <time>2010-01-01T00:18:34Z</time>
      </trkpt>
      <trkpt lat="31.72282500" lon="34.86048310">
        <ele>177.08000</ele>
        <time>2010-01-01T00:18:43Z</time>
      </trkpt>
      <trkpt lat="31.72264620" lon="34.86052060">
        <ele>174.92000</ele>
        <time>2010-01-01T00:18:50Z</time>
      </trkpt>
      <trkpt lat="31.72257970" lon="34.86030660">
        <ele>174.43000</ele>
        <time>2010-01-01T00:18:58Z</time>
      </trkpt>
      <trkpt lat="31.72252870" lon="34.86009090">
        <ele>174.29000</ele>
        <time>2010-01-01T00:19:06Z</time>
      </trkpt>
      <trkpt lat="31.72259560" lon="34.85986640">
        <ele>174.47000</ele>
        <time>2010-01-01T00:19:14Z</time>
      </trkpt>
      <trkpt lat="31.72267350" lon="34.85966950">
        <ele>175.25000</ele>
        <time>2010-01-01T00:19:21Z</time>
      </trkpt>
      <trkpt lat="31.72273040" lon="34.85945280">
        <ele>174.25000</ele>
        <time>2010-01-01T00:19:29Z</time>
      </trkpt>
      <trkpt lat="31.72280760" lon="34.85925130">
        <ele>177.96000</ele>
        <time>2010-01-01T00:19:36Z</time>
      </trkpt>
      <trkpt lat="31.72291640" lon="34.85905910">
        <ele>179.35000</ele>
        <time>2010-01-01T00:19:44Z</time>
      </trkpt>
      <trkpt lat="31.72296610" lon="34.85883820">
        <ele>177.54000</ele>
        <time>2010-01-01T00:19:52Z</time>
      </trkpt>
      <trkpt lat="31.72301900" lon="34.85862800">
        <ele>175.19000</ele>
        <time>2010-01-01T00:19:59Z</time>
      </trkpt>
      <trkpt lat="31.72307600" lon="34.85839220">
        <ele>174.18000</ele>
        <time>2010-01-01T00:20:08Z</time>
      </trkpt>
      <trkpt lat="31.72319320" lon="34.85821140">
        <ele>173.16000</ele>
        <time>2010-01-01T00:20:15Z</time>
      </trkpt>
      <trkpt lat="31.72335130" lon="34.85808650">
        <ele>176.27000</ele>
        <time>2010-01-01T00:20:23Z</time>
      </trkpt>
      <trkpt lat="31.72325790" lon="34.85789630">
        <ele>177.93000</ele>
        <time>2010-01-01T00:20:31Z</time>
      </trkpt>
      <trkpt lat="31.72303710" lon="34.85783770">
        <ele>177.65000</ele>
        <time>2010-01-01T00:20:40Z</time>
      </trkpt>
      <trkpt lat="31.72285990" lon="34.85790430">
        <ele>177.40000</ele>
        <time>2010-01-01T00:20:47Z</time>
      </trkpt>
      <trkpt lat="31.72265260" lon="34.85801350">
        <ele>175.24000</ele>
        <time>2010-01-01T00:20:56Z</time>
      </trkpt>
      <trkpt lat="31.72247620" lon="34.85812630">
        <ele>172.81000</ele>
        <time>2010-01-01T00:21:04Z</time>
      </trkpt>
      <trkpt lat="31.72230210" lon="34.85825390">
        <ele>171.76000</ele>
        <time>2010-01-01T00:21:12Z</time>
      </trkpt>
      <trkpt lat="31.72217430" lon="34.85840590">
        <ele>171.32000</ele>
        <time>2010-01-01T00:21:20Z</time>
      </trkpt>
      <trkpt lat="31.72202820" lon="34.85853220">
        <ele>168.77000</ele>
        <time>2010-01-01T00:21:27Z</time>
      </trkpt>
      <trkpt lat="31.72187810" lon="34.85866510">
        <ele>166.55000</ele>
        <time>2010-01-01T00:21:34Z</time>
      </trkpt>
      <trkpt lat="31.72174270" lon="34.85884790">
        <ele>165.96000</ele>
        <time>2010-01-01T00:21:43Z</time>
      </trkpt>
      <trkpt lat="31.72160180" lon="34.85899490">
        <ele>166.19000</ele>
        <time>2010-01-01T00:21:50Z</time>
      </trkpt>
      <trkpt lat="31.72146000" lon="34.85914980">
        <ele>165.23000</ele>
        <time>2010-01-01T00:21:58Z</time>
      </trkpt>
      <trkpt lat="31.72127650" lon="34.85927070">
        <ele>163.44000</ele>
        <time>2010-01-01T00:22:06Z</time>
      </trkpt>
      <trkpt lat="31.72111840" lon="34.85938680">
        <ele>162.26000</ele>
        <time>2010-01-01T00:22:14Z</time>
      </trkpt>
      <trkpt lat="31.72094220" lon="34.85944480">
        <ele>159.11000</ele>
        <time>2010-01-01T00:22:21Z</time>
      </trkpt>
      <trkpt lat="31.72074680" lon="34.85941240">
        <ele>160.93000</ele>
        <time>2010-01-01T00:22:29Z</time>
      </trkpt>
      <trkpt lat="31.72056770" lon="34.85937470">
        <ele>161.00000</ele>
        <time>2010-01-01T00:22:36Z</time>
      </trkpt>
      <trkpt lat="31.72038740" lon="34.85934160">
        <ele>159.60000</ele>
        <time>2010-01-01T00:22:44Z</time>
      </trkpt>
      <trkpt lat="31.72020580" lon="34.85922510">
        <ele>158.26000</ele>
        <time>2010-01-01T00:22:52Z</time>
      </trkpt>
      <trkpt lat="31.72000940" lon="34.85921920">
        <ele>157.78000</ele>
        <time>2010-01-01T00:23:00Z</time>
      </trkpt>
      <trkpt lat="31.71988890" lon="34.85905790">
        <ele>158.04000</ele>
        <time>2010-01-01T00:23:07Z</time>
      </trkpt>
      <trkpt lat="31.71971810" lon="34.85892330">
        <ele>157.19000</ele>
        <time>2010-01-01T00:23:15Z</time>
      </trkpt>
      <trkpt lat="31.71956520" lon="34.85877930">
        <ele>154.31000</ele>
        <time>2010-01-01T00:23:23Z</time>
      </trkpt>
      <trkpt lat="31.71944770" lon="34.85859870">
        <ele>152.98000</ele>
        <time>2010-01-01T00:23:31Z</time>
      </trkpt>
      <trkpt lat="31.71930830" lon="34.85844920">
        <ele>151.66000</ele>
        <time>2010-01-01T00:23:39Z</time>
      </trkpt>
      <trkpt lat="31.71915930" lon="34.85831110">
        <ele>150.83000</ele>
        <time>2010-01-01T00:23:46Z</time>
      </trkpt>
      <trkpt lat="31.71897900" lon="34.85825710">
        <ele>152.16000</ele>
        <time>2010-01-01T00:23:54Z</time>
      </trkpt>
      <trkpt lat="31.71880260" lon="34.85817670">
        <ele>156.16000</ele>
        <time>2010-01-01T00:24:01Z</time>
      </trkpt>
      <trkpt lat="31.71869370" lon="34.85797800">
        <ele>158.97000</ele>
        <time>2010-01-01T00:24:09Z</time>
      </trkpt>
      <trkpt lat="31.71859390" lon="34.85779710">
        <ele>162.81000</ele>
        <time>2010-01-01T00:24:17Z</time>
      </trkpt>
      <trkpt lat="31.71840790" lon="34.85776390">
        <ele>164.38000</ele>
        <time>2010-01-01T00:24:24Z</time>
      </trkpt>
      <trkpt lat="31.71825060" lon="34.85763930">
        <ele>162.93000</ele>
        <time>2010-01-01T00:24:32Z</time>
      </trkpt>
      <trkpt lat="31.71809040" lon="34.85750820">
        <ele>160.81000</ele>
        <time>2010-01-01T00:24:39Z</time>
      </trkpt>
      <trkpt lat="31.71813150" lon="34.85730170">
        <ele>161.34000</ele>
        <time>2010-01-01T00:24:47Z</time>
      </trkpt>
      <trkpt lat="31.71813140" lon="34.85708700">
        <ele>161.70000</ele>
        <time>2010-01-01T00:24:54Z</time>
      </trkpt>
      <trkpt lat="31.71818240" lon="34.85686960">
        <ele>159.75000</ele>
        <time>2010-01-01T00:25:02Z</time>
      </trkpt>
      <trkpt lat="31.71827630" lon="34.85665440">
        <ele>162.31000</ele>
        <time>2010-01-01T00:25:10Z</time>
      </trkpt>
      <trkpt lat="31.71825860" lon="34.85644080">
        <ele>162.00000</ele>
        <time>2010-01-01T00:25:17Z</time>
      </trkpt>
      <trkpt lat="31.71837890" lon="34.85628310">
        <ele>165.81000</ele>
        <time>2010-01-01T00:25:24Z</time>
      </trkpt>
      <trkpt lat="31.71852470" lon="34.85615330">
        <ele>167.58000</ele>
        <time>2010-01-01T00:25:32Z</time>
      </trkpt>
      <trkpt lat="31.71866100" lon="34.85598700">
        <ele>169.74000</ele>
        <time>2010-01-01T00:25:40Z</time>
      </trkpt>
      <trkpt lat="31.71882550" lon="34.85585890">
        <ele>170.19000</ele>
        <time>2010-01-01T00:25:48Z</time>
      </trkpt>
      <trkpt lat="31.71887820" lon="34.85609410">
        <ele>172.80000</ele>
        <time>2010-01-01T00:25:56Z</time>
      </trkpt>
      <trkpt lat="31.71886300" lon="34.85630690">
        <ele>174.61000</ele>
        <time>2010-01-01T00:26:03Z</time>
      </trkpt>
      <trkpt lat="31.71900990" lon="34.85617760">
        <ele>177.20000</ele>
        <time>2010-01-01T00:26:10Z</time>
      </trkpt>
      <trkpt lat="31.71919700" lon="34.85613910">
        <ele>180.06000</ele>
        <time>2010-01-01T00:26:18Z</time>
      </trkpt>
      <trkpt lat="31.71937630" lon="34.85617400">
        <ele>181.73000</ele>
        <time>2010-01-01T00:26:25Z</time>
      </trkpt>
      <trkpt lat="31.71955970" lon="34.85617180">
        <ele>179.78000</ele>
        <time>2010-01-01T00:26:33Z</time>
      </trkpt>
      <trkpt lat="31.71975060" lon="34.85618460">
        <ele>182.51000</ele>
        <time>2010-01-01T00:26:40Z</time>
      </trkpt>
      <trkpt lat="31.71993830" lon="34.85623630">
        <ele>184.87000</ele>
        <time>2010-01-01T00:26:48Z</time>
      </trkpt>
      <trkpt lat="31.72006920" lon="34.85608920">
        <ele>188.22000</ele>
        <time>2010-01-01T00:26:55Z</time>
      </trkpt>
      <trkpt lat="31.72023580" lon="34.85600730">
        <ele>187.51000</ele>
        <time>2010-01-01T00:27:02Z</time>
      </trkpt>
      <trkpt lat="31.72036560" lon="34.85581840">
        <ele>188.84000</ele>
        <time>2010-01-01T00:27:11Z</time>
      </trkpt>
      <trkpt lat="31.72042220" lon="34.85560070">
        <ele>186.60000</ele>
        <time>2010-01-01T00:27:18Z</time>
      </trkpt>
      <trkpt lat="31.72038090" lon="34.85537540">
        <ele>186.13000</ele>
        <time>2010-01-01T00:27:26Z</time>
      </trkpt>
      <trkpt lat="31.72029760" lon="34.85518290">
        <ele>186.09000</ele>
        <time>2010-01-01T00:27:34Z</time>
      </trkpt>
      <trkpt lat="31.72016400" lon="34.85502530">
        <ele>183.95000</ele>
        <time>2010-01-01T00:27:41Z</time>
      </trkpt>
      <trkpt lat="31.71998380" lon="34.85493930">
        <ele>183.77000</ele>
        <time>2010-01-01T00:27:49Z</time>
      </trkpt>
      <trkpt lat="31.71981180" lon="34.85485790">
        <ele>179.92000</ele>
        <time>2010-01-01T00:27:56Z</time>
      </trkpt>
      <trkpt lat="31.71961920" lon="34.85489990">
        <ele>180.46000</ele>
        <time>2010-01-01T00:28:04Z</time>
      </trkpt>
      <trkpt lat="31.71943430" lon="34.85489570">
        <ele>181.23000</ele>
        <time>2010-01-01T00:28:12Z</time>
      </trkpt>
      <trkpt lat="31.71924840" lon="34.85491020">
        <ele>180.90000</ele>
        <time>2010-01-01T00:28:19Z</time>
      </trkpt>
      <trkpt lat="31.71906310" lon="34.85489750">
        <ele>181.56000</ele>
        <time>2010-01-01T00:28:27Z</time>
      </trkpt>
      <trkpt lat="31.71883940" lon="34.85494370">
        <ele>178.87000</ele>
        <time>2010-01-01T00:28:36Z</time>
      </trkpt>
      <trkpt lat="31.71863010" lon="34.85492120">
        <ele>177.51000</ele>
        <time>2010-01-01T00:28:44Z</time>
      </trkpt>
      <trkpt lat="31.71842830" lon="34.85492480">
        <ele>174.21000</ele>
        <time>2010-01-01T00:28:52Z</time>
      </trkpt>
      <trkpt lat="31.71822480" lon="34.85490930">
        <ele>175.08000</ele>
        <time>2010-01-01T00:29:00Z</time>
      </trkpt>
      <trkpt lat="31.71804910" lon="34.85497000">
        <ele>173.99000</ele>
        <time>2010-01-01T00:29:08Z</time>
      </trkpt>
      <trkpt lat="31.71786940" lon="34.85499760">
        <ele>174.08000</ele>
        <time>2010-01-01T00:29:15Z</time>
      </trkpt>
      <trkpt lat="31.71771810" lon="34.85513860">
        <ele>175.13000</ele>
        <time>2010-01-01T00:29:23Z</time>
      </trkpt>
      <trkpt lat="31.71762250" lon="34.85531950">
        <ele>175.90000</ele>
        <time>2010-01-01T00:29:30Z</time>
      </trkpt>
      <trkpt lat="31.71747370" lon="34.85546480">
        <ele>175.49000</ele>
        <time>2010-01-01T00:29:38Z</time>
      </trkpt>
      <trkpt lat="31.71733110" lon="34.85560900">
        <ele>176.32000</ele>
        <time>2010-01-01T00:29:45Z</time>
      </trkpt>
      <trkpt lat="31.71717390" lon="34.85575420">
        <ele>177.02000</ele>
        <time>2010-01-01T00:29:53Z</time>
      </trkpt>
      <trkpt lat="31.71697780" lon="34.85589910">
        <ele>176.05000</ele>
        <time>2010-01-01T00:30:02Z</time>
      </trkpt>
      <trkpt lat="31.71678250" lon="34.85599810">
        <ele>174.91000</ele>
        <time>2010-01-01T00:30:11Z</time>
      </trkpt>
      <trkpt lat="31.71663940" lon="34.85617350">
        <ele>171.03000</ele>
        <time>2010-01-01T00:30:19Z</time>
      </trkpt>
      <trkpt lat="31.71645420" lon="34.85625150">
        <ele>168.46000</ele>
        <time>2010-01-01T00:30:27Z</time>
      </trkpt>
      <trkpt lat="31.71630590" lon="34.85638030">
        <ele>164.58000</ele>
        <time>2010-01-01T00:30:35Z</time>
      </trkpt>
      <trkpt lat="31.71611770" lon="34.85638060">
        <ele>162.12000</ele>
        <time>2010-01-01T00:30:42Z</time>
      </trkpt>
      <trkpt lat="31.71591760" lon="34.85639710">
        <ele>161.94000</ele>
        <time>2010-01-01T00:30:50Z</time>
      </trkpt>
      <trkpt lat="31.71571260" lon="34.85638370">
        <ele>162.65000</ele>
        <time>2010-01-01T00:30:58Z</time>
      </trkpt>
      <trkpt lat="31.71552640" lon="34.85627880">
        <ele>162.06000</ele>
        <time>2010-01-01T00:31:07Z</time>
      </trkpt>
      <trkpt lat="31.71535290" lon="34.85615350">
        <ele>160.53000</ele>
        <time>2010-01-01T00:31:15Z</time>
      </trkpt>
      <trkpt lat="31.71529020" lon="34.85592580">
        <ele>159.82000</ele>
        <time>2010-01-01T00:31:23Z</time>
      </trkpt>
      <trkpt lat="31.71523730" lon="34.85572110">
        <ele>157.70000</ele>
        <time>2010-01-01T00:31:30Z</time>
      </trkpt>
      <trkpt lat="31.71514810" lon="34.85552000">
        <ele>156.00000</ele>
        <time>2010-01-01T00:31:38Z</time>
      </trkpt>
      <trkpt lat="31.71507390" lon="34.85529030">
        <ele>155.51000</ele>
        <time>2010-01-01T00:31:46Z</time>
      </trkpt>
      <trkpt lat="31.71491000" lon="34.85515900">
        <ele>155.74000</ele>
        <time>2010-01-01T00:31:54Z</time>
      </trkpt>
      <trkpt lat="31.71481670" lon="34.85493030">
        <ele>153.44000</ele>
        <time>2010-01-01T00:32:03Z</time>
      </trkpt>
      <trkpt lat="31.71474030" lon="34.85472040">
        <ele>150.77000</ele>
        <time>2010-01-01T00:32:11Z</time>
      </trkpt>
      <trkpt lat="31.71463790" lon="34.85453790">
        <ele>150.44000</ele>
        <time>2010-01-01T00:32:18Z</time>
      </trkpt>
      <trkpt lat="31.71470500" lon="34.85431760">
        <ele>150.18000</ele>
        <time>2010-01-01T00:32:26Z</time>
      </trkpt>
      <trkpt lat="31.71487420" lon="34.85442750">
        <ele>150.92000</ele>
        <time>2010-01-01T00:32:34Z</time>
      </trkpt>
      <trkpt lat="31.71492480" lon="34.85463250">
        <ele>153.63000</ele>
        <time>2010-01-01T00:32:41Z</time>
      </trkpt>
      <trkpt lat="31.71511640" lon="34.85456370">
        <ele>158.43000</ele>
        <time>2010-01-01T00:32:49Z</time>
      </trkpt>
      <trkpt lat="31.71521190" lon="34.85475780">
        <ele>157.84000</ele>
        <time>2010-01-01T00:32:57Z</time>
      </trkpt>
      <trkpt lat="31.71529480" lon="34.85454170">
        <ele>161.27000</ele>
        <time>2010-01-01T00:33:05Z</time>
      </trkpt>
      <trkpt lat="31.71530110" lon="34.85432240">
        <ele>164.47000</ele>
        <time>2010-01-01T00:33:12Z</time>
      </trkpt>
      <trkpt lat="31.71532750" lon="34.85411010">
        <ele>165.05000</ele>
        <time>2010-01-01T00:33:20Z</time>
      </trkpt>
      <trkpt lat="31.71549770" lon="34.85402910">
        <ele>165.06000</ele>
        <time>2010-01-01T00:33:27Z</time>
      </trkpt>
      <trkpt lat="31.71557470" lon="34.85424600">
        <ele>169.61000</ele>
        <time>2010-01-01T00:33:35Z</time>
      </trkpt>
      <trkpt lat="31.71573270" lon="34.85411880">
        <ele>168.88000</ele>
        <time>2010-01-01T00:33:43Z</time>
      </trkpt>
      <trkpt lat="31.71580910" lon="34.85392370">
        <ele>169.28000</ele>
        <time>2010-01-01T00:33:50Z</time>
      </trkpt>
      <trkpt lat="31.71597570" lon="34.85377620">
        <ele>173.77000</ele>
        <time>2010-01-01T00:33:58Z</time>
      </trkpt>
      <trkpt lat="31.71616120" lon="34.85367020">
        <ele>175.20000</ele>
        <time>2010-01-01T00:34:06Z</time>
      </trkpt>
      <trkpt lat="31.71632670" lon="34.85357890">
        <ele>174.32000</ele>
        <time>2010-01-01T00:34:14Z</time>
      </trkpt>
      <trkpt lat="31.71648790" lon="34.85345320">
        <ele>172.96000</ele>
        <time>2010-01-01T00:34:22Z</time>
      </trkpt>
      <trkpt lat="31.71653570" lon="34.85322360">
        <ele>171.49000</ele>
        <time>2010-01-01T00:34:30Z</time>
      </trkpt>
      <trkpt lat="31.71662590" lon="34.85299950">
        <ele>172.68000</ele>
        <time>2010-01-01T00:34:38Z</time>
      </trkpt>
      <trkpt lat="31.71669160" lon="34.85278380">
        <ele>170.71000</ele>
        <time>2010-01-01T00:34:46Z</time>
      </trkpt>
      <trkpt lat="31.71669690" lon="34.85254280">
        <ele>175.41000</ele>
        <time>2010-01-01T00:34:54Z</time>
      </trkpt>
      <trkpt lat="31.71656940" lon="34.85233600">
        <ele>176.96000</ele>
        <time>2010-01-01T00:35:03Z</time>
      </trkpt>
      <trkpt lat="31.71642990" lon="34.85218710">
        <ele>177.21000</ele>
        <time>2010-01-01T00:35:10Z</time>
      </trkpt>
      <trkpt lat="31.71622270" lon="34.85213000">
        <ele>174.26000</ele>
        <time>2010-01-01T00:35:19Z</time>
      </trkpt>
      <trkpt lat="31.71606730" lon="34.85200090">
        <ele>175.19000</ele>
        <time>2010-01-01T00:35:26Z</time>
      </trkpt>
      <trkpt lat="31.71588780" lon="34.85196080">
        <ele>174.99000</ele>
        <time>2010-01-01T00:35:34Z</time>
      </trkpt>
      <trkpt lat="31.71573200" lon="34.85185390">
        <ele>175.79000</ele>
        <time>2010-01-01T00:35:41Z</time>
      </trkpt>
      <trkpt lat="31.71557720" lon="34.85168080">
        <ele>176.07000</ele>
        <time>2010-01-01T00:35:49Z</time>
      </trkpt>
      <trkpt lat="31.71541440" lon="34.85156730">
        <ele>177.18000</ele>
        <time>2010-01-01T00:35:57Z</time>
      </trkpt>
      <trkpt lat="31.71528260" lon="34.85141420">
        <ele>174.99000</ele>
        <time>2010-01-01T00:36:04Z</time>
      </trkpt>
      <trkpt lat="31.71515440" lon="34.85157840">
        <ele>171.46000</ele>
        <time>2010-01-01T00:36:12Z</time>
      </trkpt>
      <trkpt lat="31.71521540" lon="34.85183840">
        <ele>170.23000</ele>
        <time>2010-01-01T00:36:21Z</time>
      </trkpt>
      <trkpt lat="31.71506180" lon="34.85199920">
        <ele>169.05000</ele>
        <time>2010-01-01T00:36:29Z</time>
      </trkpt>
      <trkpt lat="31.71488350" lon="34.85206440">
        <ele>169.61000</ele>
        <time>2010-01-01T00:36:37Z</time>
      </trkpt>
      <trkpt lat="31.71470840" lon="34.85216130">
        <ele>168.56000</ele>
        <time>2010-01-01T00:36:45Z</time>
      </trkpt>
      <trkpt lat="31.71470380" lon="34.85237530">
        <ele>169.28000</ele>
        <time>2010-01-01T00:36:52Z</time>
      </trkpt>
      <trkpt lat="31.71451470" lon="34.85228230">
        <ele>163.45000</ele>
        <time>2010-01-01T00:37:00Z</time>
      </trkpt>
      <trkpt lat="31.71432820" lon="34.85220310">
        <ele>163.14000</ele>
        <time>2010-01-01T00:37:08Z</time>
      </trkpt>
      <trkpt lat="31.71425570" lon="34.85197650">
        <ele>163.64000</ele>
        <time>2010-01-01T00:37:16Z</time>
      </trkpt>
      <trkpt lat="31.71426560" lon="34.85175700">
        <ele>162.01000</ele>
        <time>2010-01-01T00:37:24Z</time>
      </trkpt>
      <trkpt lat="31.71408410" lon="34.85177140">
        <ele>161.12000</ele>
        <time>2010-01-01T00:37:31Z</time>
      </trkpt>
      <trkpt lat="31.71404120" lon="34.85199660">
        <ele>161.79000</ele>
        <time>2010-01-01T00:37:39Z</time>
      </trkpt>
      <trkpt lat="31.71384650" lon="34.85203330">
        <ele>163.31000</ele>
        <time>2010-01-01T00:37:47Z</time>
      </trkpt>
      <trkpt lat="31.71364600" lon="34.85206650">
        <ele>163.98000</ele>
        <time>2010-01-01T00:37:55Z</time>
      </trkpt>
      <trkpt lat="31.71346440" lon="34.85208940">
        <ele>163.22000</ele>
        <time>2010-01-01T00:38:02Z</time>
      </trkpt>
      <trkpt lat="31.71331420" lon="34.85196500">
        <ele>159.86000</ele>
        <time>2010-01-01T00:38:10Z</time>
      </trkpt>
      <trkpt lat="31.71317580" lon="34.85178970">
        <ele>159.42000</ele>
        <time>2010-01-01T00:38:18Z</time>
      </trkpt>
      <trkpt lat="31.71299640" lon="34.85172210">
        <ele>159.41000</ele>
        <time>2010-01-01T00:38:25Z</time>
      </trkpt>
      <trkpt lat="31.71288940" lon="34.85189270">
        <ele>153.52000</ele>
        <time>2010-01-01T00:38:33Z</time>
      </trkpt>
      <trkpt lat="31.71268370" lon="34.85185960">
        <ele>151.39000</ele>
        <time>2010-01-01T00:38:41Z</time>
      </trkpt>
      <trkpt lat="31.71250350" lon="34.85171610">
        <ele>152.15000</ele>
        <time>2010-01-01T00:38:50Z</time>
      </trkpt>
      <trkpt lat="31.71248810" lon="34.85149410">
        <ele>150.10000</ele>
        <time>2010-01-01T00:38:57Z</time>
      </trkpt>
      <trkpt lat="31.71259160" lon="34.85129570">
        <ele>145.53000</ele>
        <time>2010-01-01T00:39:05Z</time>
      </trkpt>
      <trkpt lat="31.71271270" lon="34.85110720">
        <ele>146.99000</ele>
        <time>2010-01-01T00:39:13Z</time>
      </trkpt>
      <trkpt lat="31.71282340" lon="34.85093630">
        <ele>147.01000</ele>
        <time>2010-01-01T00:39:20Z</time>
      </trkpt>
      <trkpt lat="31.71261860" lon="34.85090990">
        <ele>144.27000</ele>
        <time>2010-01-01T00:39:29Z</time>
      </trkpt>
      <trkpt lat="31.71243880" lon="34.85093680">
        <ele>142.58000</ele>
        <time>2010-01-01T00:39:36Z</time>
      </trkpt>
      <trkpt lat="31.71223140" lon="34.85095770">
        <ele>142.68000</ele>
        <time>2010-01-01T00:39:44Z</time>
      </trkpt>
      <trkpt lat="31.71200520" lon="34.85098620">
        <ele>141.73000</ele>
        <time>2010-01-01T00:39:53Z</time>
      </trkpt>
      <trkpt lat="31.71181650" lon="34.85105450">
        <ele>141.02000</ele>
        <time>2010-01-01T00:40:01Z</time>
      </trkpt>
      <trkpt lat="31.71159610" lon="34.85115470">
        <ele>140.91000</ele>
        <time>2010-01-01T00:40:11Z</time>
      </trkpt>
      <trkpt lat="31.71140480" lon="34.85117640">
        <ele>141.42000</ele>
        <time>2010-01-01T00:40:18Z</time>
      </trkpt>
      <trkpt lat="31.71118670" lon="34.85109370">
        <ele>140.35000</ele>
        <time>2010-01-01T00:40:28Z</time>
      </trkpt>
      <trkpt lat="31.71096430" lon="34.85107760">
        <ele>139.36000</ele>
        <time>2010-01-01T00:40:37Z</time>
      </trkpt>
      <trkpt lat="31.71074380" lon="34.85106040">
        <ele>137.89000</ele>
        <time>2010-01-01T00:40:45Z</time>
      </trkpt>
      <trkpt lat="31.71051560" lon="34.85104560">
        <ele>135.58000</ele>
        <time>2010-01-01T00:40:55Z</time>
      </trkpt>
      <trkpt lat="31.71032510" lon="34.85102720">
        <ele>134.16000</ele>
        <time>2010-01-01T00:41:02Z</time>
      </trkpt>
      <trkpt lat="31.71012070" lon="34.85100210">
        <ele>132.05000</ele>
        <time>2010-01-01T00:41:10Z</time>
      </trkpt>
      <trkpt lat="31.70990190" lon="34.85098200">
        <ele>131.10000</ele>
        <time>2010-01-01T00:41:19Z</time>
      </trkpt>
      <trkpt lat="31.70969350" lon="34.85090580">
        <ele>130.35000</ele>
        <time>2010-01-01T00:41:28Z</time>
      </trkpt>
      <trkpt lat="31.70950360" lon="34.85082560">
        <ele>130.01000</ele>
        <time>2010-01-01T00:41:36Z</time>
      </trkpt>
      <trkpt lat="31.70928800" lon="34.85073100">
        <ele>129.51000</ele>
        <time>2010-01-01T00:41:45Z</time>
      </trkpt>
      <trkpt lat="31.70909910" lon="34.85069990">
        <ele>128.38000</ele>
        <time>2010-01-01T00:41:53Z</time>
      </trkpt>
      <trkpt lat="31.70889030" lon="34.85064980">
        <ele>127.72000</ele>
        <time>2010-01-01T00:42:01Z</time>
      </trkpt>
      <trkpt lat="31.70869360" lon="34.85060620">
        <ele>126.27000</ele>
        <time>2010-01-01T00:42:09Z</time>
      </trkpt>
      <trkpt lat="31.70850000" lon="34.85057000">
        <ele>126.31000</ele>
        <time>2010-01-01T00:42:17Z</time>
      </trkpt>
      <trkpt lat="31.70830590" lon="34.85047140">
        <ele>126.28000</ele>
        <time>2010-01-01T00:42:26Z</time>
      </trkpt>
      <trkpt lat="31.70814810" lon="34.85036030">
        <ele>126.31000</ele>
        <time>2010-01-01T00:42:33Z</time>
      </trkpt>
      <trkpt lat="31.70804760" lon="34.85014030">
        <ele>127.16000</ele>
        <time>2010-01-01T00:42:42Z</time>
      </trkpt>
      <trkpt lat="31.70797750" lon="34.84994200">
        <ele>127.29000</ele>
        <time>2010-01-01T00:42:49Z</time>
      </trkpt>
      <trkpt lat="31.70787150" lon="34.84971720">
        <ele>127.24000</ele>
        <time>2010-01-01T00:42:58Z</time>
      </trkpt>
      <trkpt lat="31.70777620" lon="34.84950340">
        <ele>127.35000</ele>
        <time>2010-01-01T00:43:06Z</time>
      </trkpt>
      <trkpt lat="31.70766270" lon="34.84933840">
        <ele>126.67000</ele>
        <time>2010-01-01T00:43:13Z</time>
      </trkpt>
      <trkpt lat="31.70755060" lon="34.84913330">
        <ele>127.21000</ele>
        <time>2010-01-01T00:43:21Z</time>
      </trkpt>
      <trkpt lat="31.70746930" lon="34.84892520">
        <ele>127.55000</ele>
        <time>2010-01-01T00:43:29Z</time>
      </trkpt>
      <trkpt lat="31.70738360" lon="34.84873940">
        <ele>128.08000</ele>
        <time>2010-01-01T00:43:36Z</time>
      </trkpt>
      <trkpt lat="31.70728090" lon="34.84852320">
        <ele>129.44000</ele>
        <time>2010-01-01T00:43:45Z</time>
      </trkpt>
      <trkpt lat="31.70718800" lon="34.84833980">
        <ele>128.79000</ele>
        <time>2010-01-01T00:43:52Z</time>
      </trkpt>
      <trkpt lat="31.70708810" lon="34.84815180">
        <ele>126.93000</ele>
        <time>2010-01-01T00:44:00Z</time>
      </trkpt>
      <trkpt lat="31.70693970" lon="34.84797330">
        <ele>125.26000</ele>
        <time>2010-01-01T00:44:08Z</time>
      </trkpt>
      <trkpt lat="31.70680020" lon="34.84778620">
        <ele>124.55000</ele>
        <time>2010-01-01T00:44:17Z</time>
      </trkpt>
      <trkpt lat="31.70667490" lon="34.84763050">
        <ele>124.40000</ele>
        <time>2010-01-01T00:44:24Z</time>
      </trkpt>
      <trkpt lat="31.70653700" lon="34.84748190">
        <ele>124.35000</ele>
        <time>2010-01-01T00:44:31Z</time>
      </trkpt>
      <trkpt lat="31.70644110" lon="34.84727420">
        <ele>126.26000</ele>
        <time>2010-01-01T00:44:39Z</time>
      </trkpt>
      <trkpt lat="31.70635030" lon="34.84707270">
        <ele>126.99000</ele>
        <time>2010-01-01T00:44:47Z</time>
      </trkpt>
      <trkpt lat="31.70626160" lon="34.84688350">
        <ele>127.43000</ele>
        <time>2010-01-01T00:44:55Z</time>
      </trkpt>
      <trkpt lat="31.70613340" lon="34.84670320">
        <ele>128.13000</ele>
        <time>2010-01-01T00:45:03Z</time>
      </trkpt>
      <trkpt lat="31.70595240" lon="34.84663860">
        <ele>128.90000</ele>
        <time>2010-01-01T00:45:10Z</time>
      </trkpt>
      <trkpt lat="31.70583480" lon="34.84679930">
        <ele>128.42000</ele>
        <time>2010-01-01T00:45:17Z</time>
      </trkpt>
      <trkpt lat="31.70585590" lon="34.84702140">
        <ele>127.18000</ele>
        <time>2010-01-01T00:45:25Z</time>
      </trkpt>
      <trkpt lat="31.70593120" lon="34.84724540">
        <ele>126.71000</ele>
        <time>2010-01-01T00:45:33Z</time>
      </trkpt>
      <trkpt lat="31.70603330" lon="34.84742470">
        <ele>129.09000</ele>
        <time>2010-01-01T00:45:41Z</time>
      </trkpt>
      <trkpt lat="31.70610970" lon="34.84763650">
        <ele>128.85000</ele>
        <time>2010-01-01T00:45:48Z</time>
      </trkpt>
      <trkpt lat="31.70612590" lon="34.84785670">
        <ele>127.96000</ele>
        <time>2010-01-01T00:45:56Z</time>
      </trkpt>
      <trkpt lat="31.70605250" lon="34.84806400">
        <ele>129.23000</ele>
        <time>2010-01-01T00:46:04Z</time>
      </trkpt>
      <trkpt lat="31.70585500" lon="34.84807610">
        <ele>127.62000</ele>
        <time>2010-01-01T00:46:11Z</time>
      </trkpt>
      <trkpt lat="31.70565510" lon="34.84812240">
        <ele>128.78000</ele>
        <time>2010-01-01T00:46:20Z</time>
      </trkpt>
      <trkpt lat="31.70546260" lon="34.84811430">
        <ele>128.59000</ele>
        <time>2010-01-01T00:46:27Z</time>
      </trkpt>
      <trkpt lat="31.70527550" lon="34.84815450">
        <ele>129.45000</ele>
        <time>2010-01-01T00:46:35Z</time>
      </trkpt>
      <trkpt lat="31.70512840" lon="34.84799470">
        <ele>131.73000</ele>
        <time>2010-01-01T00:46:43Z</time>
      </trkpt>
      <trkpt lat="31.70500080" lon="34.84783450">
        <ele>132.96000</ele>
        <time>2010-01-01T00:46:50Z</time>
      </trkpt>
      <trkpt lat="31.70499090" lon="34.84761800">
        <ele>132.67000</ele>
        <time>2010-01-01T00:46:58Z</time>
      </trkpt>
      <trkpt lat="31.70498310" lon="34.84739600">
        <ele>130.09000</ele>
        <time>2010-01-01T00:47:05Z</time>
      </trkpt>
      <trkpt lat="31.70484950" lon="34.84720830">
        <ele>128.72000</ele>
        <time>2010-01-01T00:47:14Z</time>
      </trkpt>
      <trkpt lat="31.70477530" lon="34.84700980">
        <ele>131.80000</ele>
        <time>2010-01-01T00:47:21Z</time>
      </trkpt>
      <trkpt lat="31.70458210" lon="34.84700370">
        <ele>136.00000</ele>
        <time>2010-01-01T00:47:29Z</time>
      </trkpt>
      <trkpt lat="31.70439900" lon="34.84702540">
        <ele>140.18000</ele>
        <time>2010-01-01T00:47:36Z</time>
      </trkpt>
      <trkpt lat="31.70434610" lon="34.84680670">
        <ele>143.04000</ele>
        <time>2010-01-01T00:47:44Z</time>
      </trkpt>
      <trkpt lat="31.70432940" lon="34.84658870">
        <ele>142.24000</ele>
        <time>2010-01-01T00:47:51Z</time>
      </trkpt>
      <trkpt lat="31.70426230" lon="34.84637830">
        <ele>141.10000</ele>
        <time>2010-01-01T00:47:59Z</time>
      </trkpt>
      <trkpt lat="31.70418900" lon="34.84617690">
        <ele>140.65000</ele>
        <time>2010-01-01T00:48:07Z</time>
      </trkpt>
      <trkpt lat="31.70410590" lon="34.84598040">
        <ele>140.25000</ele>
        <time>2010-01-01T00:48:14Z</time>
      </trkpt>
      <trkpt lat="31.70393330" lon="34.84587470">
        <ele>139.08000</ele>
        <time>2010-01-01T00:48:22Z</time>
      </trkpt>
      <trkpt lat="31.70385910" lon="34.84565230">
        <ele>138.79000</ele>
        <time>2010-01-01T00:48:30Z</time>
      </trkpt>
      <trkpt lat="31.70370370" lon="34.84554020">
        <ele>139.39000</ele>
        <time>2010-01-01T00:48:37Z</time>
      </trkpt>
      <trkpt lat="31.70352320" lon="34.84556970">
        <ele>139.68000</ele>
        <time>2010-01-01T00:48:45Z</time>
      </trkpt>
      <trkpt lat="31.70333570" lon="34.84553200">
        <ele>140.10000</ele>
        <time>2010-01-01T00:48:52Z</time>
      </trkpt>
      <trkpt lat="31.70325020" lon="34.84531210">
        <ele>140.96000</ele>
        <time>2010-01-01T00:49:00Z</time>
      </trkpt>
      <trkpt lat="31.70304900" lon="34.84514690">
        <ele>142.90000</ele>
        <time>2010-01-01T00:49:10Z</time>
      </trkpt>
      <trkpt lat="31.70286830" lon="34.84516570">
        <ele>141.89000</ele>
        <time>2010-01-01T00:49:17Z</time>
      </trkpt>
      <trkpt lat="31.70264810" lon="34.84518480">
        <ele>141.59000</ele>
        <time>2010-01-01T00:49:26Z</time>
      </trkpt>
      <trkpt lat="31.70248320" lon="34.84507690">
        <ele>144.43000</ele>
        <time>2010-01-01T00:49:34Z</time>
      </trkpt>
      <trkpt lat="31.70240930" lon="34.84486020">
        <ele>144.06000</ele>
        <time>2010-01-01T00:49:42Z</time>
      </trkpt>
      <trkpt lat="31.70227800" lon="34.84469190">
        <ele>144.44000</ele>
        <time>2010-01-01T00:49:50Z</time>
      </trkpt>
      <trkpt lat="31.70214260" lon="34.84454880">
        <ele>148.22000</ele>
        <time>2010-01-01T00:49:57Z</time>
      </trkpt>
      <trkpt lat="31.70203900" lon="34.84435430">
        <ele>150.78000</ele>
        <time>2010-01-01T00:50:05Z</time>
      </trkpt>
      <trkpt lat="31.70183910" lon="34.84432450">
        <ele>157.95000</ele>
        <time>2010-01-01T00:50:13Z</time>
      </trkpt>
      <trkpt lat="31.70165160" lon="34.84435400">
        <ele>158.77000</ele>
        <time>2010-01-01T00:50:20Z</time>
      </trkpt>
      <trkpt lat="31.70147810" lon="34.84441820">
        <ele>160.68000</ele>
        <time>2010-01-01T00:50:28Z</time>
      </trkpt>
      <trkpt lat="31.70129630" lon="34.84448800">
        <ele>161.63000</ele>
        <time>2010-01-01T00:50:35Z</time>
      </trkpt>
      <trkpt lat="31.70115490" lon="34.84463860">
        <ele>164.67000</ele>
        <time>2010-01-01T00:50:43Z</time>
      </trkpt>
      <trkpt lat="31.70099940" lon="34.84475970">
        <ele>168.29000</ele>
        <time>2010-01-01T00:50:50Z</time>
      </trkpt>
      <trkpt lat="31.70081660" lon="34.84477270">
        <ele>169.78000</ele>
        <time>2010-01-01T00:50:58Z</time>
      </trkpt>
      <trkpt lat="31.70063240" lon="34.84478330">
        <ele>174.24000</ele>
        <time>2010-01-01T00:51:05Z</time>
      </trkpt>
      <trkpt lat="31.70046970" lon="34.84491760">
        <ele>175.31000</ele>
        <time>2010-01-01T00:51:13Z</time>
      </trkpt>
      <trkpt lat="31.70056130" lon="34.84511400">
        <ele>180.24000</ele>
        <time>2010-01-01T00:51:21Z</time>
      </trkpt>
      <trkpt lat="31.70064540" lon="34.84531890">
        <ele>183.04000</ele>
        <time>2010-01-01T00:51:28Z</time>
      </trkpt>
      <trkpt lat="31.70077110" lon="34.84547060">
        <ele>187.93000</ele>
        <time>2010-01-01T00:51:36Z</time>
      </trkpt>
      <trkpt lat="31.70091970" lon="34.84559310">
        <ele>189.90000</ele>
        <time>2010-01-01T00:51:43Z</time>
      </trkpt>
      <trkpt lat="31.70107360" lon="34.84572040">
        <ele>188.54000</ele>
        <time>2010-01-01T00:51:50Z</time>
      </trkpt>
      <trkpt lat="31.70122850" lon="34.84588660">
        <ele>188.27000</ele>
        <time>2010-01-01T00:51:59Z</time>
      </trkpt>
      <trkpt lat="31.70135840" lon="34.84603970">
        <ele>188.97000</ele>
        <time>2010-01-01T00:52:06Z</time>
      </trkpt>
      <trkpt lat="31.70157060" lon="34.84607610">
        <ele>190.01000</ele>
        <time>2010-01-01T00:52:15Z</time>
      </trkpt>
      <trkpt lat="31.70176070" lon="34.84614150">
        <ele>189.22000</ele>
        <time>2010-01-01T00:52:23Z</time>
      </trkpt>
      <trkpt lat="31.70180340" lon="34.84635850">
        <ele>191.59000</ele>
        <time>2010-01-01T00:52:30Z</time>
      </trkpt>
      <trkpt lat="31.70178650" lon="34.84658090">
        <ele>193.29000</ele>
        <time>2010-01-01T00:52:38Z</time>
      </trkpt>
      <trkpt lat="31.70192640" lon="34.84673930">
        <ele>201.25000</ele>
        <time>2010-01-01T00:52:46Z</time>
      </trkpt>
      <trkpt lat="31.70205440" lon="34.84690710">
        <ele>209.34000</ele>
        <time>2010-01-01T00:52:53Z</time>
      </trkpt>
      <trkpt lat="31.70212110" lon="34.84710620">
        <ele>206.68000</ele>
        <time>2010-01-01T00:53:01Z</time>
      </trkpt>
      <trkpt lat="31.70201640" lon="34.84730520">
        <ele>209.04000</ele>
        <time>2010-01-01T00:53:09Z</time>
      </trkpt>
      <trkpt lat="31.70194720" lon="34.84751380">
        <ele>213.76000</ele>
        <time>2010-01-01T00:53:16Z</time>
      </trkpt>
      <trkpt lat="31.70200630" lon="34.84775870">
        <ele>216.05000</ele>
        <time>2010-01-01T00:53:25Z</time>
      </trkpt>
      <trkpt lat="31.70209760" lon="34.84797110">
        <ele>215.64000</ele>
        <time>2010-01-01T00:53:33Z</time>
      </trkpt>
      <trkpt lat="31.70227580" lon="34.84807700">
        <ele>213.96000</ele>
        <time>2010-01-01T00:53:41Z</time>
      </trkpt>
      <trkpt lat="31.70243840" lon="34.84797730">
        <ele>211.79000</ele>
        <time>2010-01-01T00:53:48Z</time>
      </trkpt>
      <trkpt lat="31.70259830" lon="34.84782700">
        <ele>207.49000</ele>
        <time>2010-01-01T00:53:57Z</time>
      </trkpt>
      <trkpt lat="31.70278910" lon="34.84771980">
        <ele>204.10000</ele>
        <time>2010-01-01T00:54:05Z</time>
      </trkpt>
      <trkpt lat="31.70302310" lon="34.84769080">
        <ele>202.68000</ele>
        <time>2010-01-01T00:54:14Z</time>
      </trkpt>
      <trkpt lat="31.70318010" lon="34.84783370">
        <ele>201.30000</ele>
        <time>2010-01-01T00:54:22Z</time>
      </trkpt>
      <trkpt lat="31.70326000" lon="34.84804440">
        <ele>199.84000</ele>
        <time>2010-01-01T00:54:30Z</time>
      </trkpt>
      <trkpt lat="31.70342510" lon="34.84816650">
        <ele>198.58000</ele>
        <time>2010-01-01T00:54:38Z</time>
      </trkpt>
      <trkpt lat="31.70353640" lon="34.84833670">
        <ele>195.16000</ele>
        <time>2010-01-01T00:54:45Z</time>
      </trkpt>
      <trkpt lat="31.70358070" lon="34.84855850">
        <ele>192.01000</ele>
        <time>2010-01-01T00:54:53Z</time>
      </trkpt>
      <trkpt lat="31.70353970" lon="34.84877600">
        <ele>188.98000</ele>
        <time>2010-01-01T00:55:01Z</time>
      </trkpt>
      <trkpt lat="31.70367990" lon="34.84895180">
        <ele>185.97000</ele>
        <time>2010-01-01T00:55:09Z</time>
      </trkpt>
      <trkpt lat="31.70374300" lon="34.84920010">
        <ele>184.84000</ele>
        <time>2010-01-01T00:55:18Z</time>
      </trkpt>
      <trkpt lat="31.70380710" lon="34.84940100">
        <ele>184.30000</ele>
        <time>2010-01-01T00:55:25Z</time>
      </trkpt>
      <trkpt lat="31.70386360" lon="34.84961500">
        <ele>183.08000</ele>
        <time>2010-01-01T00:55:33Z</time>
      </trkpt>
      <trkpt lat="31.70390520" lon="34.84982150">
        <ele>183.69000</ele>
        <time>2010-01-01T00:55:40Z</time>
      </trkpt>
      <trkpt lat="31.70394370" lon="34.85007800">
        <ele>184.04000</ele>
        <time>2010-01-01T00:55:49Z</time>
      </trkpt>
      <trkpt lat="31.70393470" lon="34.85031270">
        <ele>183.66000</ele>
        <time>2010-01-01T00:55:57Z</time>
      </trkpt>
      <trkpt lat="31.70393880" lon="34.85053300">
        <ele>182.31000</ele>
        <time>2010-01-01T00:56:04Z</time>
      </trkpt>
      <trkpt lat="31.70397340" lon="34.85075060">
        <ele>181.61000</ele>
        <time>2010-01-01T00:56:12Z</time>
      </trkpt>
      <trkpt lat="31.70408200" lon="34.85093830">
        <ele>181.55000</ele>
        <time>2010-01-01T00:56:20Z</time>
      </trkpt>
      <trkpt lat="31.70421720" lon="34.85110090">
        <ele>180.59000</ele>
        <time>2010-01-01T00:56:27Z</time>
      </trkpt>
      <trkpt lat="31.70425310" lon="34.85134060">
        <ele>179.13000</ele>
        <time>2010-01-01T00:56:36Z</time>
      </trkpt>
      <trkpt lat="31.70425790" lon="34.85156450">
        <ele>174.84000</ele>
        <time>2010-01-01T00:56:43Z</time>
      </trkpt>
      <trkpt lat="31.70419560" lon="34.85177480">
        <ele>172.99000</ele>
        <time>2010-01-01T00:56:51Z</time>
      </trkpt>
      <trkpt lat="31.70436910" lon="34.85191110">
        <ele>171.08000</ele>
        <time>2010-01-01T00:56:59Z</time>
      </trkpt>
      <trkpt lat="31.70455610" lon="34.85197500">
        <ele>167.24000</ele>
        <time>2010-01-01T00:57:07Z</time>
      </trkpt>
      <trkpt lat="31.70471420" lon="34.85184960">
        <ele>155.52000</ele>
        <time>2010-01-01T00:57:15Z</time>
      </trkpt>
      <trkpt lat="31.70487760" lon="34.85195560">
        <ele>152.84000</ele>
        <time>2010-01-01T00:57:22Z</time>
      </trkpt>
      <trkpt lat="31.70506450" lon="34.85191990">
        <ele>149.98000</ele>
        <time>2010-01-01T00:57:30Z</time>
      </trkpt>
      <trkpt lat="31.70515550" lon="34.85173210">
        <ele>148.33000</ele>
        <time>2010-01-01T00:57:37Z</time>
      </trkpt>
      <trkpt lat="31.70534980" lon="34.85174320">
        <ele>141.84000</ele>
        <time>2010-01-01T00:57:45Z</time>
      </trkpt>
      <trkpt lat="31.70547590" lon="34.85159020">
        <ele>138.69000</ele>
        <time>2010-01-01T00:57:52Z</time>
      </trkpt>
      <trkpt lat="31.70545990" lon="34.85135930">
        <ele>138.88000</ele>
        <time>2010-01-01T00:58:00Z</time>
      </trkpt>
      <trkpt lat="31.70547630" lon="34.85111940">
        <ele>137.06000</ele>
        <time>2010-01-01T00:58:08Z</time>
      </trkpt>
      <trkpt lat="31.70547080" lon="34.85086850">
        <ele>135.52000</ele>
        <time>2010-01-01T00:58:17Z</time>
      </trkpt>
      <trkpt lat="31.70547360" lon="34.85061250">
        <ele>134.49000</ele>
        <time>2010-01-01T00:58:25Z</time>
      </trkpt>
      <trkpt lat="31.70549830" lon="34.85037450">
        <ele>134.31000</ele>
        <time>2010-01-01T00:58:34Z</time>
      </trkpt>
      <trkpt lat="31.70543970" lon="34.85012610">
        <ele>132.51000</ele>
        <time>2010-01-01T00:58:42Z</time>
      </trkpt>
      <trkpt lat="31.70540170" lon="34.84988640">
        <ele>132.26000</ele>
        <time>2010-01-01T00:58:51Z</time>
      </trkpt>
      <trkpt lat="31.70535260" lon="34.84966210">
        <ele>132.78000</ele>
        <time>2010-01-01T00:58:58Z</time>
      </trkpt>
      <trkpt lat="31.70529840" lon="34.84944300">
        <ele>132.86000</ele>
        <time>2010-01-01T00:59:06Z</time>
      </trkpt>
      <trkpt lat="31.70525130" lon="34.84923380">
        <ele>132.69000</ele>
        <time>2010-01-01T00:59:14Z</time>
      </trkpt>
      <trkpt lat="31.70528530" lon="34.84897390">
        <ele>132.03000</ele>
        <time>2010-01-01T00:59:23Z</time>
      </trkpt>
      <trkpt lat="31.70542350" lon="34.84880410">
        <ele>133.40000</ele>
        <time>2010-01-01T00:59:31Z</time>
      </trkpt>
      <trkpt lat="31.70537370" lon="34.84853850">
        <ele>135.12000</ele>
        <time>2010-01-01T00:59:40Z</time>
      </trkpt>
      <trkpt lat="31.70535600" lon="34.84828100">
        <ele>135.58000</ele>
        <time>2010-01-01T00:59:49Z</time>
      </trkpt>
      <trkpt lat="31.70548080" lon="34.84812800">
        <ele>135.71000</ele>
        <time>2010-01-01T00:59:56Z</time>
      </trkpt>
      <trkpt lat="31.70571750" lon="34.84810630">
        <ele>135.73000</ele>
        <time>2010-01-01T01:00:05Z</time>
      </trkpt>
      <trkpt lat="31.70593660" lon="34.84807890">
        <ele>133.96000</ele>
        <time>2010-01-01T01:00:14Z</time>
      </trkpt>
      <trkpt lat="31.70613400" lon="34.84807110">
        <ele>129.86000</ele>
        <time>2010-01-01T01:00:22Z</time>
      </trkpt>
      <trkpt lat="31.70618630" lon="34.84785530">
        <ele>130.56000</ele>
        <time>2010-01-01T01:00:30Z</time>
      </trkpt>
      <trkpt lat="31.70610690" lon="34.84763340">
        <ele>129.48000</ele>
        <time>2010-01-01T01:00:38Z</time>
      </trkpt>
      <trkpt lat="31.70600010" lon="34.84744200">
        <ele>129.57000</ele>
        <time>2010-01-01T01:00:46Z</time>
      </trkpt>
      <trkpt lat="31.70589860" lon="34.84725050">
        <ele>129.21000</ele>
        <time>2010-01-01T01:00:53Z</time>
      </trkpt>
      <trkpt lat="31.70585090" lon="34.84701420">
        <ele>129.02000</ele>
        <time>2010-01-01T01:01:02Z</time>
      </trkpt>
      <trkpt lat="31.70584230" lon="34.84679450">
        <ele>129.63000</ele>
        <time>2010-01-01T01:01:09Z</time>
      </trkpt>
      <trkpt lat="31.70596350" lon="34.84662910">
        <ele>131.13000</ele>
        <time>2010-01-01T01:01:17Z</time>
      </trkpt>
      <trkpt lat="31.70613930" lon="34.84669590">
        <ele>130.85000</ele>
        <time>2010-01-01T01:01:24Z</time>
      </trkpt>
      <trkpt lat="31.70627140" lon="34.84687900">
        <ele>129.15000</ele>
        <time>2010-01-01T01:01:32Z</time>
      </trkpt>
      <trkpt lat="31.70638980" lon="34.84707900">
        <ele>128.34000</ele>
        <time>2010-01-01T01:01:40Z</time>
      </trkpt>
      <trkpt lat="31.70647760" lon="34.84726950">
        <ele>127.37000</ele>
        <time>2010-01-01T01:01:48Z</time>
      </trkpt>
      <trkpt lat="31.70654740" lon="34.84750540">
        <ele>126.95000</ele>
        <time>2010-01-01T01:01:56Z</time>
      </trkpt>
      <trkpt lat="31.70668840" lon="34.84772140">
        <ele>127.10000</ele>
        <time>2010-01-01T01:02:06Z</time>
      </trkpt>
      <trkpt lat="31.70684090" lon="34.84788990">
        <ele>128.10000</ele>
        <time>2010-01-01T01:02:14Z</time>
      </trkpt>
      <trkpt lat="31.70697590" lon="34.84805220">
        <ele>127.47000</ele>
        <time>2010-01-01T01:02:22Z</time>
      </trkpt>
      <trkpt lat="31.70708460" lon="34.84824260">
        <ele>128.15000</ele>
        <time>2010-01-01T01:02:30Z</time>
      </trkpt>
      <trkpt lat="31.70719220" lon="34.84842210">
        <ele>127.14000</ele>
        <time>2010-01-01T01:02:37Z</time>
      </trkpt>
      <trkpt lat="31.70730700" lon="34.84859240">
        <ele>124.46000</ele>
        <time>2010-01-01T01:02:44Z</time>
      </trkpt>
      <trkpt lat="31.70739750" lon="34.84877860">
        <ele>126.03000</ele>
        <time>2010-01-01T01:02:52Z</time>
      </trkpt>
      <trkpt lat="31.70748460" lon="34.84901810">
        <ele>125.60000</ele>
        <time>2010-01-01T01:03:01Z</time>
      </trkpt>
      <trkpt lat="31.70758560" lon="34.84923450">
        <ele>124.94000</ele>
        <time>2010-01-01T01:03:09Z</time>
      </trkpt>
      <trkpt lat="31.70772200" lon="34.84942380">
        <ele>124.37000</ele>
        <time>2010-01-01T01:03:17Z</time>
      </trkpt>
      <trkpt lat="31.70784780" lon="34.84961550">
        <ele>125.24000</ele>
        <time>2010-01-01T01:03:26Z</time>
      </trkpt>
      <trkpt lat="31.70793470" lon="34.84983810">
        <ele>126.89000</ele>
        <time>2010-01-01T01:03:34Z</time>
      </trkpt>
      <trkpt lat="31.70803220" lon="34.85004960">
        <ele>128.13000</ele>
        <time>2010-01-01T01:03:42Z</time>
      </trkpt>
      <trkpt lat="31.70808640" lon="34.85027030">
        <ele>128.73000</ele>
        <time>2010-01-01T01:03:50Z</time>
      </trkpt>
      <trkpt lat="31.70820890" lon="34.85043110">
        <ele>129.32000</ele>
        <time>2010-01-01T01:03:57Z</time>
      </trkpt>
      <trkpt lat="31.70836920" lon="34.85052990">
        <ele>131.10000</ele>
        <time>2010-01-01T01:04:05Z</time>
      </trkpt>
      <trkpt lat="31.70857920" lon="34.85057840">
        <ele>131.46000</ele>
        <time>2010-01-01T01:04:13Z</time>
      </trkpt>
      <trkpt lat="31.70876370" lon="34.85061690">
        <ele>132.94000</ele>
        <time>2010-01-01T01:04:21Z</time>
      </trkpt>
      <trkpt lat="31.70897850" lon="34.85066500">
        <ele>131.49000</ele>
        <time>2010-01-01T01:04:29Z</time>
      </trkpt>
      <trkpt lat="31.70916090" lon="34.85070030">
        <ele>131.15000</ele>
        <time>2010-01-01T01:04:37Z</time>
      </trkpt>
      <trkpt lat="31.70934480" lon="34.85070540">
        <ele>131.07000</ele>
        <time>2010-01-01T01:04:44Z</time>
      </trkpt>
      <trkpt lat="31.70952600" lon="34.85076930">
        <ele>131.38000</ele>
        <time>2010-01-01T01:04:52Z</time>
      </trkpt>
      <trkpt lat="31.70971960" lon="34.85088020">
        <ele>130.49000</ele>
        <time>2010-01-01T01:05:00Z</time>
      </trkpt>
      <trkpt lat="31.70989490" lon="34.85094260">
        <ele>130.07000</ele>
        <time>2010-01-01T01:05:08Z</time>
      </trkpt>
      <trkpt lat="31.71009480" lon="34.85098140">
        <ele>132.22000</ele>
        <time>2010-01-01T01:05:16Z</time>
      </trkpt>
      <trkpt lat="31.71028120" lon="34.85101580">
        <ele>132.55000</ele>
        <time>2010-01-01T01:05:23Z</time>
      </trkpt>
      <trkpt lat="31.71046830" lon="34.85102170">
        <ele>130.88000</ele>
        <time>2010-01-01T01:05:31Z</time>
      </trkpt>
      <trkpt lat="31.71065320" lon="34.85099000">
        <ele>133.36000</ele>
        <time>2010-01-01T01:05:38Z</time>
      </trkpt>
      <trkpt lat="31.71082560" lon="34.85105320">
        <ele>134.09000</ele>
        <time>2010-01-01T01:05:46Z</time>
      </trkpt>
      <trkpt lat="31.71100070" lon="34.85110790">
        <ele>135.38000</ele>
        <time>2010-01-01T01:05:53Z</time>
      </trkpt>
      <trkpt lat="31.71119270" lon="34.85111810">
        <ele>135.61000</ele>
        <time>2010-01-01T01:06:01Z</time>
      </trkpt>
      <trkpt lat="31.71138170" lon="34.85110760">
        <ele>136.28000</ele>
        <time>2010-01-01T01:06:08Z</time>
      </trkpt>
      <trkpt lat="31.71156460" lon="34.85111890">
        <ele>137.23000</ele>
        <time>2010-01-01T01:06:15Z</time>
      </trkpt>
      <trkpt lat="31.71175300" lon="34.85105960">
        <ele>136.25000</ele>
        <time>2010-01-01T01:06:23Z</time>
      </trkpt>
      <trkpt lat="31.71193690" lon="34.85102640">
        <ele>134.51000</ele>
        <time>2010-01-01T01:06:31Z</time>
      </trkpt>
      <trkpt lat="31.71212930" lon="34.85097480">
        <ele>135.04000</ele>
        <time>2010-01-01T01:06:39Z</time>
      </trkpt>
      <trkpt lat="31.71231690" lon="34.85100300">
        <ele>134.70000</ele>
        <time>2010-01-01T01:06:46Z</time>
      </trkpt>
      <trkpt lat="31.71250410" lon="34.85095830">
        <ele>136.65000</ele>
        <time>2010-01-01T01:06:54Z</time>
      </trkpt>
      <trkpt lat="31.71268910" lon="34.85095010">
        <ele>139.15000</ele>
        <time>2010-01-01T01:07:01Z</time>
      </trkpt>
      <trkpt lat="31.71267050" lon="34.85116080">
        <ele>140.42000</ele>
        <time>2010-01-01T01:07:08Z</time>
      </trkpt>
      <trkpt lat="31.71274970" lon="34.85137330">
        <ele>143.29000</ele>
        <time>2010-01-01T01:07:16Z</time>
      </trkpt>
      <trkpt lat="31.71293420" lon="34.85142760">
        <ele>144.92000</ele>
        <time>2010-01-01T01:07:24Z</time>
      </trkpt>
      <trkpt lat="31.71312630" lon="34.85138870">
        <ele>149.27000</ele>
        <time>2010-01-01T01:07:32Z</time>
      </trkpt>
      <trkpt lat="31.71325640" lon="34.85123080">
        <ele>148.37000</ele>
        <time>2010-01-01T01:07:39Z</time>
      </trkpt>
      <trkpt lat="31.71333950" lon="34.85101820">
        <ele>151.55000</ele>
        <time>2010-01-01T01:07:47Z</time>
      </trkpt>
      <trkpt lat="31.71331480" lon="34.85078640">
        <ele>153.19000</ele>
        <time>2010-01-01T01:07:55Z</time>
      </trkpt>
      <trkpt lat="31.71350060" lon="34.85080740">
        <ele>156.85000</ele>
        <time>2010-01-01T01:08:03Z</time>
      </trkpt>
      <trkpt lat="31.71364810" lon="34.85094560">
        <ele>156.22000</ele>
        <time>2010-01-01T01:08:10Z</time>
      </trkpt>
      <trkpt lat="31.71381380" lon="34.85081990">
        <ele>162.46000</ele>
        <time>2010-01-01T01:08:18Z</time>
      </trkpt>
      <trkpt lat="31.71398020" lon="34.85092720">
        <ele>162.17000</ele>
        <time>2010-01-01T01:08:26Z</time>
      </trkpt>
      <trkpt lat="31.71415570" lon="34.85098860">
        <ele>165.32000</ele>
        <time>2010-01-01T01:08:33Z</time>
      </trkpt>
      <trkpt lat="31.71430610" lon="34.85084360">
        <ele>166.26000</ele>
        <time>2010-01-01T01:08:41Z</time>
      </trkpt>
      <trkpt lat="31.71439750" lon="34.85063710">
        <ele>163.81000</ele>
        <time>2010-01-01T01:08:49Z</time>
      </trkpt>
      <trkpt lat="31.71450920" lon="34.85045090">
        <ele>158.36000</ele>
        <time>2010-01-01T01:08:57Z</time>
      </trkpt>
      <trkpt lat="31.71465170" lon="34.85029020">
        <ele>156.32000</ele>
        <time>2010-01-01T01:09:04Z</time>
      </trkpt>
      <trkpt lat="31.71482810" lon="34.85023170">
        <ele>156.11000</ele>
        <time>2010-01-01T01:09:12Z</time>
      </trkpt>
      <trkpt lat="31.71502640" lon="34.85021390">
        <ele>157.57000</ele>
        <time>2010-01-01T01:09:20Z</time>
      </trkpt>
      <trkpt lat="31.71522060" lon="34.85033790">
        <ele>159.13000</ele>
        <time>2010-01-01T01:09:29Z</time>
      </trkpt>
      <trkpt lat="31.71540580" lon="34.85028030">
        <ele>160.78000</ele>
        <time>2010-01-01T01:09:36Z</time>
      </trkpt>
      <trkpt lat="31.71559970" lon="34.85033890">
        <ele>162.34000</ele>
        <time>2010-01-01T01:09:44Z</time>
      </trkpt>
      <trkpt lat="31.71574830" lon="34.85047320">
        <ele>163.53000</ele>
        <time>2010-01-01T01:09:52Z</time>
      </trkpt>
      <trkpt lat="31.71562450" lon="34.85064090">
        <ele>161.89000</ele>
        <time>2010-01-01T01:09:59Z</time>
      </trkpt>
      <trkpt lat="31.71544290" lon="34.85067830">
        <ele>161.65000</ele>
        <time>2010-01-01T01:10:07Z</time>
      </trkpt>
      <trkpt lat="31.71527020" lon="34.85061530">
        <ele>161.11000</ele>
        <time>2010-01-01T01:10:14Z</time>
      </trkpt>
      <trkpt lat="31.71523870" lon="34.85083790">
        <ele>163.72000</ele>
        <time>2010-01-01T01:10:22Z</time>
      </trkpt>
      <trkpt lat="31.71508440" lon="34.85097190">
        <ele>163.69000</ele>
        <time>2010-01-01T01:10:29Z</time>
      </trkpt>
      <trkpt lat="31.71528970" lon="34.85103590">
        <ele>166.08000</ele>
        <time>2010-01-01T01:10:38Z</time>
      </trkpt>
      <trkpt lat="31.71545270" lon="34.85093760">
        <ele>165.42000</ele>
        <time>2010-01-01T01:10:45Z</time>
      </trkpt>
      <trkpt lat="31.71562650" lon="34.85086570">
        <ele>166.02000</ele>
        <time>2010-01-01T01:10:53Z</time>
      </trkpt>
      <trkpt lat="31.71578150" lon="34.85073950">
        <ele>168.21000</ele>
        <time>2010-01-01T01:11:00Z</time>
      </trkpt>
      <trkpt lat="31.71598320" lon="34.85072890">
        <ele>167.89000</ele>
        <time>2010-01-01T01:11:08Z</time>
      </trkpt>
      <trkpt lat="31.71616350" lon="34.85077840">
        <ele>167.61000</ele>
        <time>2010-01-01T01:11:16Z</time>
      </trkpt>
      <trkpt lat="31.71631950" lon="34.85089140">
        <ele>165.51000</ele>
        <time>2010-01-01T01:11:23Z</time>
      </trkpt>
      <trkpt lat="31.71648270" lon="34.85099640">
        <ele>165.27000</ele>
        <time>2010-01-01T01:11:30Z</time>
      </trkpt>
      <trkpt lat="31.71653830" lon="34.85120480">
        <ele>166.03000</ele>
        <time>2010-01-01T01:11:38Z</time>
      </trkpt>
      <trkpt lat="31.71659200" lon="34.85143050">
        <ele>167.89000</ele>
        <time>2010-01-01T01:11:46Z</time>
      </trkpt>
      <trkpt lat="31.71670230" lon="34.85163490">
        <ele>166.92000</ele>
        <time>2010-01-01T01:11:54Z</time>
      </trkpt>
      <trkpt lat="31.71687380" lon="34.85173620">
        <ele>165.20000</ele>
        <time>2010-01-01T01:12:02Z</time>
      </trkpt>
      <trkpt lat="31.71701630" lon="34.85186670">
        <ele>165.18000</ele>
        <time>2010-01-01T01:12:09Z</time>
      </trkpt>
      <trkpt lat="31.71709210" lon="34.85206520">
        <ele>165.15000</ele>
        <time>2010-01-01T01:12:16Z</time>
      </trkpt>
      <trkpt lat="31.71708750" lon="34.85229180">
        <ele>165.79000</ele>
        <time>2010-01-01T01:12:24Z</time>
      </trkpt>
      <trkpt lat="31.71697960" lon="34.85246470">
        <ele>166.19000</ele>
        <time>2010-01-01T01:12:31Z</time>
      </trkpt>
      <trkpt lat="31.71705820" lon="34.85266820">
        <ele>170.32000</ele>
        <time>2010-01-01T01:12:39Z</time>
      </trkpt>
      <trkpt lat="31.71725570" lon="34.85271590">
        <ele>169.46000</ele>
        <time>2010-01-01T01:12:47Z</time>
      </trkpt>
      <trkpt lat="31.71743950" lon="34.85275320">
        <ele>169.50000</ele>
        <time>2010-01-01T01:12:54Z</time>
      </trkpt>
      <trkpt lat="31.71762210" lon="34.85275110">
        <ele>169.29000</ele>
        <time>2010-01-01T01:13:02Z</time>
      </trkpt>
      <trkpt lat="31.71780210" lon="34.85265720">
        <ele>169.40000</ele>
        <time>2010-01-01T01:13:10Z</time>
      </trkpt>
      <trkpt lat="31.71785160" lon="34.85243090">
        <ele>170.67000</ele>
        <time>2010-01-01T01:13:18Z</time>
      </trkpt>
      <trkpt lat="31.71804230" lon="34.85234900">
        <ele>170.41000</ele>
        <time>2010-01-01T01:13:26Z</time>
      </trkpt>
      <trkpt lat="31.71819120" lon="34.85247500">
        <ele>176.13000</ele>
        <time>2010-01-01T01:13:33Z</time>
      </trkpt>
      <trkpt lat="31.71835390" lon="34.85262250">
        <ele>177.53000</ele>
        <time>2010-01-01T01:13:41Z</time>
      </trkpt>
      <trkpt lat="31.71853300" lon="34.85274880">
        <ele>173.30000</ele>
        <time>2010-01-01T01:13:50Z</time>
      </trkpt>
      <trkpt lat="31.71869880" lon="34.85296770">
        <ele>176.71000</ele>
        <time>2010-01-01T01:14:00Z</time>
      </trkpt>
      <trkpt lat="31.71888270" lon="34.85305170">
        <ele>178.84000</ele>
        <time>2010-01-01T01:14:08Z</time>
      </trkpt>
      <trkpt lat="31.71906090" lon="34.85300980">
        <ele>181.14000</ele>
        <time>2010-01-01T01:14:15Z</time>
      </trkpt>
      <trkpt lat="31.71925780" lon="34.85303750">
        <ele>181.98000</ele>
        <time>2010-01-01T01:14:23Z</time>
      </trkpt>
      <trkpt lat="31.71938710" lon="34.85320470">
        <ele>183.72000</ele>
        <time>2010-01-01T01:14:30Z</time>
      </trkpt>
      <trkpt lat="31.71953310" lon="34.85335220">
        <ele>185.69000</ele>
        <time>2010-01-01T01:14:38Z</time>
      </trkpt>
      <trkpt lat="31.71965670" lon="34.85351850">
        <ele>180.20000</ele>
        <time>2010-01-01T01:14:46Z</time>
      </trkpt>
      <trkpt lat="31.71975100" lon="34.85370490">
        <ele>177.20000</ele>
        <time>2010-01-01T01:14:53Z</time>
      </trkpt>
      <trkpt lat="31.71986510" lon="34.85387070">
        <ele>179.12000</ele>
        <time>2010-01-01T01:15:00Z</time>
      </trkpt>
      <trkpt lat="31.71994780" lon="34.85407590">
        <ele>182.22000</ele>
        <time>2010-01-01T01:15:08Z</time>
      </trkpt>
      <trkpt lat="31.72009790" lon="34.85420230">
        <ele>181.28000</ele>
        <time>2010-01-01T01:15:15Z</time>
      </trkpt>
      <trkpt lat="31.72025810" lon="34.85432580">
        <ele>185.14000</ele>
        <time>2010-01-01T01:15:23Z</time>
      </trkpt>
      <trkpt lat="31.72036300" lon="34.85450000">
        <ele>188.10000</ele>
        <time>2010-01-01T01:15:30Z</time>
      </trkpt>
      <trkpt lat="31.72054550" lon="34.85453850">
        <ele>191.62000</ele>
        <time>2010-01-01T01:15:38Z</time>
      </trkpt>
      <trkpt lat="31.72072400" lon="34.85464010">
        <ele>190.07000</ele>
        <time>2010-01-01T01:15:46Z</time>
      </trkpt>
      <trkpt lat="31.72083510" lon="34.85483700">
        <ele>190.60000</ele>
        <time>2010-01-01T01:15:54Z</time>
      </trkpt>
      <trkpt lat="31.72090480" lon="34.85506360">
        <ele>189.39000</ele>
        <time>2010-01-01T01:16:02Z</time>
      </trkpt>
      <trkpt lat="31.72106820" lon="34.85518680">
        <ele>192.97000</ele>
        <time>2010-01-01T01:16:10Z</time>
      </trkpt>
      <trkpt lat="31.72123740" lon="34.85529400">
        <ele>193.08000</ele>
        <time>2010-01-01T01:16:17Z</time>
      </trkpt>
      <trkpt lat="31.72142510" lon="34.85526690">
        <ele>190.74000</ele>
        <time>2010-01-01T01:16:25Z</time>
      </trkpt>
      <trkpt lat="31.72158320" lon="34.85540370">
        <ele>188.76000</ele>
        <time>2010-01-01T01:16:33Z</time>
      </trkpt>
      <trkpt lat="31.72175080" lon="34.85552500">
        <ele>188.94000</ele>
        <time>2010-01-01T01:16:41Z</time>
      </trkpt>
      <trkpt lat="31.72186730" lon="34.85569870">
        <ele>187.25000</ele>
        <time>2010-01-01T01:16:48Z</time>
      </trkpt>
      <trkpt lat="31.72199910" lon="34.85587400">
        <ele>187.43000</ele>
        <time>2010-01-01T01:16:56Z</time>
      </trkpt>
      <trkpt lat="31.72219640" lon="34.85593570">
        <ele>189.79000</ele>
        <time>2010-01-01T01:17:04Z</time>
      </trkpt>
      <trkpt lat="31.72237290" lon="34.85607790">
        <ele>189.88000</ele>
        <time>2010-01-01T01:17:13Z</time>
      </trkpt>
      <trkpt lat="31.72255940" lon="34.85614870">
        <ele>188.55000</ele>
        <time>2010-01-01T01:17:21Z</time>
      </trkpt>
      <trkpt lat="31.72273060" lon="34.85623260">
        <ele>189.24000</ele>
        <time>2010-01-01T01:17:28Z</time>
      </trkpt>
      <trkpt lat="31.72293150" lon="34.85629930">
        <ele>190.31000</ele>
        <time>2010-01-01T01:17:37Z</time>
      </trkpt>
      <trkpt lat="31.72311630" lon="34.85639630">
        <ele>188.43000</ele>
        <time>2010-01-01T01:17:45Z</time>
      </trkpt>
      <trkpt lat="31.72327420" lon="34.85651080">
        <ele>186.11000</ele>
        <time>2010-01-01T01:17:52Z</time>
      </trkpt>
      <trkpt lat="31.72342270" lon="34.85665260">
        <ele>183.52000</ele>
        <time>2010-01-01T01:18:00Z</time>
      </trkpt>
      <trkpt lat="31.72348140" lon="34.85685650">
        <ele>186.94000</ele>
        <time>2010-01-01T01:18:07Z</time>
      </trkpt>
      <trkpt lat="31.72352400" lon="34.85707230">
        <ele>186.59000</ele>
        <time>2010-01-01T01:18:15Z</time>
      </trkpt>
      <trkpt lat="31.72353500" lon="34.85729580">
        <ele>182.31000</ele>
        <time>2010-01-01T01:18:22Z</time>
      </trkpt>
      <trkpt lat="31.72361520" lon="34.85753370">
        <ele>179.25000</ele>
        <time>2010-01-01T01:18:31Z</time>
      </trkpt>
      <trkpt lat="31.72381020" lon="34.85754280">
        <ele>182.76000</ele>
        <time>2010-01-01T01:18:39Z</time>
      </trkpt>
      <trkpt lat="31.72405060" lon="34.85749000">
        <ele>177.32000</ele>
        <time>2010-01-01T01:18:49Z</time>
      </trkpt>
      <trkpt lat="31.72423110" lon="34.85740950">
        <ele>176.61000</ele>
        <time>2010-01-01T01:18:56Z</time>
      </trkpt>
      <trkpt lat="31.72440940" lon="34.85746900">
        <ele>178.66000</ele>
        <time>2010-01-01T01:19:04Z</time>
      </trkpt>
      <trkpt lat="31.72460060" lon="34.85752690">
        <ele>182.47000</ele>
        <time>2010-01-01T01:19:12Z</time>
      </trkpt>
      <trkpt lat="31.72474850" lon="34.85765320">
        <ele>183.84000</ele>
        <time>2010-01-01T01:19:19Z</time>
      </trkpt>
      <trkpt lat="31.72494190" lon="34.85762730">
        <ele>184.79000</ele>
        <time>2010-01-01T01:19:27Z</time>
      </trkpt>
      <trkpt lat="31.72511400" lon="34.85769700">
        <ele>183.05000</ele>
        <time>2010-01-01T01:19:34Z</time>
      </trkpt>
      <trkpt lat="31.72529210" lon="34.85774310">
        <ele>183.98000</ele>
        <time>2010-01-01T01:19:41Z</time>
      </trkpt>
      <trkpt lat="31.72547350" lon="34.85783280">
        <ele>182.38000</ele>
        <time>2010-01-01T01:19:49Z</time>
      </trkpt>
      <trkpt lat="31.72561910" lon="34.85795910">
        <ele>183.35000</ele>
        <time>2010-01-01T01:19:57Z</time>
      </trkpt>
      <trkpt lat="31.72576730" lon="34.85808470">
        <ele>185.09000</ele>
        <time>2010-01-01T01:20:04Z</time>
      </trkpt>
      <trkpt lat="31.72594630" lon="34.85815550">
        <ele>188.72000</ele>
        <time>2010-01-01T01:20:11Z</time>
      </trkpt>
      <trkpt lat="31.72610020" lon="34.85827990">
        <ele>189.52000</ele>
        <time>2010-01-01T01:20:19Z</time>
      </trkpt>
      <trkpt lat="31.72627160" lon="34.85821170">
        <ele>189.12000</ele>
        <time>2010-01-01T01:20:26Z</time>
      </trkpt>
      <trkpt lat="31.72645350" lon="34.85821600">
        <ele>187.39000</ele>
        <time>2010-01-01T01:20:33Z</time>
      </trkpt>
      <trkpt lat="31.72657830" lon="34.85837430">
        <ele>182.76000</ele>
        <time>2010-01-01T01:20:41Z</time>
      </trkpt>
      <trkpt lat="31.72674980" lon="34.85852170">
        <ele>181.23000</ele>
        <time>2010-01-01T01:20:49Z</time>
      </trkpt>
      <trkpt lat="31.72692590" lon="34.85865340">
        <ele>180.93000</ele>
        <time>2010-01-01T01:20:58Z</time>
      </trkpt>
      <trkpt lat="31.72712120" lon="34.85865750">
        <ele>181.31000</ele>
        <time>2010-01-01T01:21:05Z</time>
      </trkpt>
      <trkpt lat="31.72732540" lon="34.85861850">
        <ele>180.59000</ele>
        <time>2010-01-01T01:21:14Z</time>
      </trkpt>
      <trkpt lat="31.72753420" lon="34.85858980">
        <ele>181.67000</ele>
        <time>2010-01-01T01:21:22Z</time>
      </trkpt>
      <trkpt lat="31.72769390" lon="34.85847100">
        <ele>182.63000</ele>
        <time>2010-01-01T01:21:30Z</time>
      </trkpt>
      <trkpt lat="31.72777270" lon="34.85826530">
        <ele>182.24000</ele>
        <time>2010-01-01T01:21:37Z</time>
      </trkpt>
      <trkpt lat="31.72784600" lon="34.85804000">
        <ele>180.75000</ele>
        <time>2010-01-01T01:21:46Z</time>
      </trkpt>
      <trkpt lat="31.72792840" lon="34.85784530">
        <ele>181.54000</ele>
        <time>2010-01-01T01:21:53Z</time>
      </trkpt>
      <trkpt lat="31.72786570" lon="34.85764170">
        <ele>183.09000</ele>
        <time>2010-01-01T01:22:00Z</time>
      </trkpt>
      <trkpt lat="31.72771970" lon="34.85746890">
        <ele>183.98000</ele>
        <time>2010-01-01T01:22:09Z</time>
      </trkpt>
      <trkpt lat="31.72754700" lon="34.85733560">
        <ele>184.83000</ele>
        <time>2010-01-01T01:22:17Z</time>
      </trkpt>
      <trkpt lat="31.72739780" lon="34.85719770">
        <ele>184.45000</ele>
        <time>2010-01-01T01:22:25Z</time>
      </trkpt>
      <trkpt lat="31.72728340" lon="34.85699360">
        <ele>183.27000</ele>
        <time>2010-01-01T01:22:33Z</time>
      </trkpt>
      <trkpt lat="31.72716110" lon="34.85683010">
        <ele>181.85000</ele>
        <time>2010-01-01T01:22:40Z</time>
      </trkpt>
      <trkpt lat="31.72704750" lon="34.85666240">
        <ele>180.13000</ele>
        <time>2010-01-01T01:22:48Z</time>
      </trkpt>
      <trkpt lat="31.72688240" lon="34.85653000">
        <ele>179.72000</ele>
        <time>2010-01-01T01:22:56Z</time>
      </trkpt>
      <trkpt lat="31.72676930" lon="34.85632590">
        <ele>180.30000</ele>
        <time>2010-01-01T01:23:04Z</time>
      </trkpt>
      <trkpt lat="31.72660260" lon="34.85620430">
        <ele>180.48000</ele>
        <time>2010-01-01T01:23:12Z</time>
      </trkpt>
      <trkpt lat="31.72655760" lon="34.85598740">
        <ele>179.93000</ele>
        <time>2010-01-01T01:23:19Z</time>
      </trkpt>
      <trkpt lat="31.72657430" lon="34.85574960">
        <ele>179.60000</ele>
        <time>2010-01-01T01:23:27Z</time>
      </trkpt>
      <trkpt lat="31.72641560" lon="34.85564070">
        <ele>179.21000</ele>
        <time>2010-01-01T01:23:35Z</time>
      </trkpt>
      <trkpt lat="31.72630760" lon="34.85542930">
        <ele>178.10000</ele>
        <time>2010-01-01T01:23:43Z</time>
      </trkpt>
      <trkpt lat="31.72620480" lon="34.85523530">
        <ele>177.17000</ele>
        <time>2010-01-01T01:23:51Z</time>
      </trkpt>
      <trkpt lat="31.72632080" lon="34.85506510">
        <ele>175.81000</ele>
        <time>2010-01-01T01:23:58Z</time>
      </trkpt>
      <trkpt lat="31.72642900" lon="34.85525700">
        <ele>179.60000</ele>
        <time>2010-01-01T01:24:06Z</time>
      </trkpt>
      <trkpt lat="31.72661980" lon="34.85518150">
        <ele>179.11000</ele>
        <time>2010-01-01T01:24:14Z</time>
      </trkpt>
      <trkpt lat="31.72671050" lon="34.85537370">
        <ele>179.87000</ele>
        <time>2010-01-01T01:24:22Z</time>
      </trkpt>
      <trkpt lat="31.72685580" lon="34.85524570">
        <ele>181.39000</ele>
        <time>2010-01-01T01:24:29Z</time>
      </trkpt>
      <trkpt lat="31.72703710" lon="34.85524450">
        <ele>179.60000</ele>
        <time>2010-01-01T01:24:36Z</time>
      </trkpt>
      <trkpt lat="31.72708630" lon="34.85545590">
        <ele>180.27000</ele>
        <time>2010-01-01T01:24:44Z</time>
      </trkpt>
      <trkpt lat="31.72725620" lon="34.85533940">
        <ele>184.41000</ele>
        <time>2010-01-01T01:24:52Z</time>
      </trkpt>
      <trkpt lat="31.72737530" lon="34.85549830">
        <ele>185.05000</ele>
        <time>2010-01-01T01:24:59Z</time>
      </trkpt>
      <trkpt lat="31.72727900" lon="34.85567690">
        <ele>188.35000</ele>
        <time>2010-01-01T01:25:06Z</time>
      </trkpt>
      <trkpt lat="31.72719470" lon="34.85586840">
        <ele>189.06000</ele>
        <time>2010-01-01T01:25:13Z</time>
      </trkpt>
      <trkpt lat="31.72738030" lon="34.85584160">
        <ele>188.69000</ele>
        <time>2010-01-01T01:25:21Z</time>
      </trkpt>
      <trkpt lat="31.72756240" lon="34.85577110">
        <ele>188.05000</ele>
        <time>2010-01-01T01:25:29Z</time>
      </trkpt>
      <trkpt lat="31.72775070" lon="34.85574410">
        <ele>189.55000</ele>
        <time>2010-01-01T01:25:36Z</time>
      </trkpt>
      <trkpt lat="31.72792560" lon="34.85582660">
        <ele>190.32000</ele>
        <time>2010-01-01T01:25:44Z</time>
      </trkpt>
      <trkpt lat="31.72811840" lon="34.85584830">
        <ele>192.29000</ele>
        <time>2010-01-01T01:25:51Z</time>
      </trkpt>
      <trkpt lat="31.72829010" lon="34.85593490">
        <ele>194.71000</ele>
        <time>2010-01-01T01:25:59Z</time>
      </trkpt>
      <trkpt lat="31.72844070" lon="34.85606000">
        <ele>198.18000</ele>
        <time>2010-01-01T01:26:06Z</time>
      </trkpt>
      <trkpt lat="31.72862000" lon="34.85610820">
        <ele>200.01000</ele>
        <time>2010-01-01T01:26:14Z</time>
      </trkpt>
      <trkpt lat="31.72879250" lon="34.85603150">
        <ele>198.83000</ele>
        <time>2010-01-01T01:26:21Z</time>
      </trkpt>
      <trkpt lat="31.72896200" lon="34.85591250">
        <ele>198.68000</ele>
        <time>2010-01-01T01:26:29Z</time>
      </trkpt>
      <trkpt lat="31.72911780" lon="34.85579140">
        <ele>198.50000</ele>
        <time>2010-01-01T01:26:36Z</time>
      </trkpt>
      <trkpt lat="31.72929130" lon="34.85568120">
        <ele>197.97000</ele>
        <time>2010-01-01T01:26:44Z</time>
      </trkpt>
      <trkpt lat="31.72947220" lon="34.85556880">
        <ele>199.57000</ele>
        <time>2010-01-01T01:26:53Z</time>
      </trkpt>
      <trkpt lat="31.72966950" lon="34.85559320">
        <ele>200.66000</ele>
        <time>2010-01-01T01:27:00Z</time>
      </trkpt>
      <trkpt lat="31.72986840" lon="34.85554420">
        <ele>200.31000</ele>
        <time>2010-01-01T01:27:09Z</time>
      </trkpt>
      <trkpt lat="31.72989620" lon="34.85532740">
        <ele>198.06000</ele>
        <time>2010-01-01T01:27:16Z</time>
      </trkpt>
      <trkpt lat="31.72979470" lon="34.85512370">
        <ele>196.69000</ele>
        <time>2010-01-01T01:27:24Z</time>
      </trkpt>
      <trkpt lat="31.72998580" lon="34.85511950">
        <ele>194.76000</ele>
        <time>2010-01-01T01:27:32Z</time>
      </trkpt>
      <trkpt lat="31.73016470" lon="34.85521440">
        <ele>193.58000</ele>
        <time>2010-01-01T01:27:40Z</time>
      </trkpt>
      <trkpt lat="31.73033470" lon="34.85531400">
        <ele>189.78000</ele>
        <time>2010-01-01T01:27:47Z</time>
      </trkpt>
      <trkpt lat="31.73051610" lon="34.85532470">
        <ele>188.97000</ele>
        <time>2010-01-01T01:27:54Z</time>
      </trkpt>
      <trkpt lat="31.73069720" lon="34.85541180">
        <ele>188.46000</ele>
        <time>2010-01-01T01:28:02Z</time>
      </trkpt>
      <trkpt lat="31.73085390" lon="34.85553780">
        <ele>187.54000</ele>
        <time>2010-01-01T01:28:10Z</time>
      </trkpt>
      <trkpt lat="31.73104270" lon="34.85549500">
        <ele>189.10000</ele>
        <time>2010-01-01T01:28:18Z</time>
      </trkpt>
      <trkpt lat="31.73120450" lon="34.85537720">
        <ele>188.47000</ele>
        <time>2010-01-01T01:28:25Z</time>
      </trkpt>
      <trkpt lat="31.73141230" lon="34.85530620">
        <ele>186.58000</ele>
        <time>2010-01-01T01:28:34Z</time>
      </trkpt>
      <trkpt lat="31.73159290" lon="34.85528680">
        <ele>183.54000</ele>
        <time>2010-01-01T01:28:41Z</time>
      </trkpt>
      <trkpt lat="31.73174380" lon="34.85542800">
        <ele>182.97000</ele>
        <time>2010-01-01T01:28:49Z</time>
      </trkpt>
      <trkpt lat="31.73181590" lon="34.85562610">
        <ele>184.43000</ele>
        <time>2010-01-01T01:28:56Z</time>
      </trkpt>
      <trkpt lat="31.73182860" lon="34.85583940">
        <ele>185.13000</ele>
        <time>2010-01-01T01:29:03Z</time>
      </trkpt>
      <trkpt lat="31.73191050" lon="34.85604630">
        <ele>185.58000</ele>
        <time>2010-01-01T01:29:11Z</time>
      </trkpt>
      <trkpt lat="31.73188280" lon="34.85626090">
        <ele>182.34000</ele>
        <time>2010-01-01T01:29:19Z</time>
      </trkpt>
      <trkpt lat="31.73196040" lon="34.85645330">
        <ele>182.94000</ele>
        <time>2010-01-01T01:29:26Z</time>
      </trkpt>
      <trkpt lat="31.73214040" lon="34.85641330">
        <ele>182.20000</ele>
        <time>2010-01-01T01:29:33Z</time>
      </trkpt>
      <trkpt lat="31.73230960" lon="34.85630190">
        <ele>180.71000</ele>
        <time>2010-01-01T01:29:41Z</time>
      </trkpt>
      <trkpt lat="31.73248430" lon="34.85640830">
        <ele>176.12000</ele>
        <time>2010-01-01T01:29:49Z</time>
      </trkpt>
      <trkpt lat="31.73238250" lon="34.85658510">
        <ele>172.97000</ele>
        <time>2010-01-01T01:29:56Z</time>
      </trkpt>
      <trkpt lat="31.73222780" lon="34.85673150">
        <ele>171.25000</ele>
        <time>2010-01-01T01:30:04Z</time>
      </trkpt>
      <trkpt lat="31.73213700" lon="34.85693490">
        <ele>171.02000</ele>
        <time>2010-01-01T01:30:12Z</time>
      </trkpt>
      <trkpt lat="31.73211520" lon="34.85717560">
        <ele>171.68000</ele>
        <time>2010-01-01T01:30:20Z</time>
      </trkpt>
      <trkpt lat="31.73210130" lon="34.85738730">
        <ele>171.70000</ele>
        <time>2010-01-01T01:30:27Z</time>
      </trkpt>
      <trkpt lat="31.73216390" lon="34.85759090">
        <ele>171.34000</ele>
        <time>2010-01-01T01:30:35Z</time>
      </trkpt>
      <trkpt lat="31.73233070" lon="34.85769170">
        <ele>171.73000</ele>
        <time>2010-01-01T01:30:42Z</time>
      </trkpt>
      <trkpt lat="31.73252530" lon="34.85769420">
        <ele>172.16000</ele>
        <time>2010-01-01T01:30:50Z</time>
      </trkpt>
      <trkpt lat="31.73270660" lon="34.85768720">
        <ele>173.19000</ele>
        <time>2010-01-01T01:30:57Z</time>
      </trkpt>
      <trkpt lat="31.73290750" lon="34.85764330">
        <ele>174.67000</ele>
        <time>2010-01-01T01:31:05Z</time>
      </trkpt>
      <trkpt lat="31.73309320" lon="34.85761860">
        <ele>176.33000</ele>
        <time>2010-01-01T01:31:13Z</time>
      </trkpt>
      <trkpt lat="31.73328290" lon="34.85764340">
        <ele>179.96000</ele>
        <time>2010-01-01T01:31:21Z</time>
      </trkpt>
      <trkpt lat="31.73346320" lon="34.85770540">
        <ele>182.74000</ele>
        <time>2010-01-01T01:31:28Z</time>
      </trkpt>
      <trkpt lat="31.73359980" lon="34.85785990">
        <ele>183.59000</ele>
        <time>2010-01-01T01:31:36Z</time>
      </trkpt>
      <trkpt lat="31.73373220" lon="34.85804040">
        <ele>179.67000</ele>
        <time>2010-01-01T01:31:44Z</time>
      </trkpt>
      <trkpt lat="31.73386880" lon="34.85820490">
        <ele>179.59000</ele>
        <time>2010-01-01T01:31:52Z</time>
      </trkpt>
      <trkpt lat="31.73400190" lon="34.85836020">
        <ele>178.40000</ele>
        <time>2010-01-01T01:31:59Z</time>
      </trkpt>
      <trkpt lat="31.73418340" lon="34.85840010">
        <ele>179.29000</ele>
        <time>2010-01-01T01:32:07Z</time>
      </trkpt>
      <trkpt lat="31.73436720" lon="34.85838510">
        <ele>180.66000</ele>
        <time>2010-01-01T01:32:14Z</time>
      </trkpt>
      <trkpt lat="31.73453900" lon="34.85848140">
        <ele>182.30000</ele>
        <time>2010-01-01T01:32:22Z</time>
      </trkpt>
      <trkpt lat="31.73465750" lon="34.85865120">
        <ele>181.44000</ele>
        <time>2010-01-01T01:32:29Z</time>
      </trkpt>
      <trkpt lat="31.73468580" lon="34.85886460">
        <ele>180.60000</ele>
        <time>2010-01-01T01:32:36Z</time>
      </trkpt>
      <trkpt lat="31.73483880" lon="34.85898120">
        <ele>180.46000</ele>
        <time>2010-01-01T01:32:44Z</time>
      </trkpt>
      <trkpt lat="31.73503010" lon="34.85896740">
        <ele>180.23000</ele>
        <time>2010-01-01T01:32:51Z</time>
      </trkpt>
      <trkpt lat="31.73519020" lon="34.85882260">
        <ele>178.45000</ele>
        <time>2010-01-01T01:32:59Z</time>
      </trkpt>
      <trkpt lat="31.73536520" lon="34.85876360">
        <ele>175.29000</ele>
        <time>2010-01-01T01:33:07Z</time>
      </trkpt>
      <trkpt lat="31.73551230" lon="34.85861950">
        <ele>173.63000</ele>
        <time>2010-01-01T01:33:14Z</time>
      </trkpt>
      <trkpt lat="31.73569870" lon="34.85853070">
        <ele>172.24000</ele>
        <time>2010-01-01T01:33:22Z</time>
      </trkpt>
      <trkpt lat="31.73584870" lon="34.85840220">
        <ele>171.54000</ele>
        <time>2010-01-01T01:33:30Z</time>
      </trkpt>
      <trkpt lat="31.73601940" lon="34.85827140">
        <ele>170.94000</ele>
        <time>2010-01-01T01:33:38Z</time>
      </trkpt>
      <trkpt lat="31.73621130" lon="34.85812180">
        <ele>171.74000</ele>
        <time>2010-01-01T01:33:47Z</time>
      </trkpt>
      <trkpt lat="31.73639760" lon="34.85805540">
        <ele>170.65000</ele>
        <time>2010-01-01T01:33:55Z</time>
      </trkpt>
      <trkpt lat="31.73654850" lon="34.85792900">
        <ele>168.53000</ele>
        <time>2010-01-01T01:34:02Z</time>
      </trkpt>
      <trkpt lat="31.73674280" lon="34.85782310">
        <ele>167.05000</ele>
        <time>2010-01-01T01:34:11Z</time>
      </trkpt>
      <trkpt lat="31.73694700" lon="34.85778540">
        <ele>166.99000</ele>
        <time>2010-01-01T01:34:19Z</time>
      </trkpt>
      <trkpt lat="31.73710420" lon="34.85767980">
        <ele>166.27000</ele>
        <time>2010-01-01T01:34:27Z</time>
      </trkpt>
      <trkpt lat="31.73720180" lon="34.85745040">
        <ele>163.68000</ele>
        <time>2010-01-01T01:34:35Z</time>
      </trkpt>
      <trkpt lat="31.73721760" lon="34.85722630">
        <ele>160.76000</ele>
        <time>2010-01-01T01:34:43Z</time>
      </trkpt>
      <trkpt lat="31.73740370" lon="34.85714320">
        <ele>159.51000</ele>
        <time>2010-01-01T01:34:51Z</time>
      </trkpt>
      <trkpt lat="31.73758470" lon="34.85707060">
        <ele>159.17000</ele>
        <time>2010-01-01T01:34:59Z</time>
      </trkpt>
    </trkseg>
  </trk>
</gpx>

